<?xml version="1.0" encoding="UTF-8" standalone="no" ?>
<gpx xmlns="http://www.topografix.com/GPX/1/1" xmlns:xsi="http://www.w3.org/2001/XMLSchema-instance" xsi:schemaLocation="http://www.topografix.com/GPX/1/1 http://www.topografix.com/GPX/1/1/gpx.xsd" version="1.1" creator="VisuGPX - https://www.visugpx.com">
  <metadata>
    <name>TOTAL 4x4 </name>
  </metadata>
  <wpt lat="42.36368" lon="2.84007">
    <ele>181</ele>
  </wpt>
  <wpt lat="42.36397" lon="2.83975">
    <ele>185.2</ele>
  </wpt>
  <wpt lat="42.36387" lon="2.83877">
    <ele>193</ele>
  </wpt>
  <wpt lat="42.36443" lon="2.83943">
    <ele>186.6</ele>
  </wpt>
  <wpt lat="42.2714" lon="2.52859">
    <ele>415.7</ele>
  </wpt>
  <wpt lat="42.27123" lon="2.52776">
    <ele>417.3</ele>
  </wpt>
  <wpt lat="42.27143" lon="2.53029">
    <ele>408.8</ele>
  </wpt>
  <trk>
    <name><![CDATA[TOTAL 4x4 _25]]></name>
    <extensions>
      <line xmlns="http://www.topografix.com/GPX/gpx_style/0/2">
        <color>0000FF</color>
        <width>4</width>
      </line>
    </extensions>
    <trkseg>
      <trkpt lat="42.83779" lon="-1.23602">
        <ele>722.46</ele>
        <time>2021-08-05T12:08:12Z</time>
      </trkpt>
      <trkpt lat="42.83785" lon="-1.23601">
        <ele>722.47</ele>
        <time>2021-08-05T12:08:13Z</time>
      </trkpt>
      <trkpt lat="42.83791" lon="-1.236">
        <ele>722.49</ele>
        <time>2021-08-05T12:08:14Z</time>
      </trkpt>
      <trkpt lat="42.83853" lon="-1.23584">
        <ele>722.47</ele>
        <time>2021-08-05T12:08:21Z</time>
      </trkpt>
      <trkpt lat="42.83908" lon="-1.2351">
        <ele>719.52</ele>
        <time>2021-08-05T12:08:30Z</time>
      </trkpt>
      <trkpt lat="42.83918" lon="-1.23479">
        <ele>718.27</ele>
        <time>2021-08-05T12:08:33Z</time>
      </trkpt>
      <trkpt lat="42.83923" lon="-1.23435">
        <ele>716.67</ele>
        <time>2021-08-05T12:08:37Z</time>
      </trkpt>
      <trkpt lat="42.83924" lon="-1.2341">
        <ele>715.66</ele>
        <time>2021-08-05T12:08:39Z</time>
      </trkpt>
      <trkpt lat="42.83937" lon="-1.23358">
        <ele>713.89</ele>
        <time>2021-08-05T12:08:43Z</time>
      </trkpt>
      <trkpt lat="42.83955" lon="-1.23317">
        <ele>712.09</ele>
        <time>2021-08-05T12:08:47Z</time>
      </trkpt>
      <trkpt lat="42.83984" lon="-1.23302">
        <ele>709.32</ele>
        <time>2021-08-05T12:08:53Z</time>
      </trkpt>
      <trkpt lat="42.84049" lon="-1.23319">
        <ele>708.94</ele>
        <time>2021-08-05T12:09:00Z</time>
      </trkpt>
      <trkpt lat="42.84118" lon="-1.23314">
        <ele>711.91</ele>
        <time>2021-08-05T12:09:07Z</time>
      </trkpt>
      <trkpt lat="42.84174" lon="-1.23338">
        <ele>715.86</ele>
        <time>2021-08-05T12:09:14Z</time>
      </trkpt>
      <trkpt lat="42.84224" lon="-1.23353">
        <ele>717.46</ele>
        <time>2021-08-05T12:09:19Z</time>
      </trkpt>
      <trkpt lat="42.84262" lon="-1.23331">
        <ele>719</ele>
        <time>2021-08-05T12:09:24Z</time>
      </trkpt>
      <trkpt lat="42.84317" lon="-1.23298">
        <ele>720.77</ele>
        <time>2021-08-05T12:09:30Z</time>
      </trkpt>
      <trkpt lat="42.84357" lon="-1.23298">
        <ele>722.1</ele>
        <time>2021-08-05T12:09:34Z</time>
      </trkpt>
      <trkpt lat="42.84394" lon="-1.23316">
        <ele>723.71</ele>
        <time>2021-08-05T12:09:38Z</time>
      </trkpt>
      <trkpt lat="42.84429" lon="-1.23349">
        <ele>725.47</ele>
        <time>2021-08-05T12:09:42Z</time>
      </trkpt>
      <trkpt lat="42.84464" lon="-1.23393">
        <ele>727.97</ele>
        <time>2021-08-05T12:09:47Z</time>
      </trkpt>
      <trkpt lat="42.84489" lon="-1.2339">
        <ele>729.8</ele>
        <time>2021-08-05T12:09:50Z</time>
      </trkpt>
      <trkpt lat="42.84533" lon="-1.23401">
        <ele>732.56</ele>
        <time>2021-08-05T12:09:56Z</time>
      </trkpt>
      <trkpt lat="42.84548" lon="-1.23418">
        <ele>733.45</ele>
        <time>2021-08-05T12:09:58Z</time>
      </trkpt>
      <trkpt lat="42.84593" lon="-1.23473">
        <ele>737.06</ele>
        <time>2021-08-05T12:10:04Z</time>
      </trkpt>
      <trkpt lat="42.84615" lon="-1.23516">
        <ele>739.88</ele>
        <time>2021-08-05T12:10:08Z</time>
      </trkpt>
      <trkpt lat="42.84645" lon="-1.23564">
        <ele>743.82</ele>
        <time>2021-08-05T12:10:13Z</time>
      </trkpt>
      <trkpt lat="42.84651" lon="-1.23572">
        <ele>744.63</ele>
        <time>2021-08-05T12:10:14Z</time>
      </trkpt>
      <trkpt lat="42.84689" lon="-1.23588">
        <ele>748.82</ele>
        <time>2021-08-05T12:10:19Z</time>
      </trkpt>
      <trkpt lat="42.84708" lon="-1.2359">
        <ele>750.53</ele>
        <time>2021-08-05T12:10:21Z</time>
      </trkpt>
      <trkpt lat="42.84735" lon="-1.23602">
        <ele>753.01</ele>
        <time>2021-08-05T12:10:24Z</time>
      </trkpt>
      <trkpt lat="42.84774" lon="-1.23649">
        <ele>757.56</ele>
        <time>2021-08-05T12:10:29Z</time>
      </trkpt>
      <trkpt lat="42.84779" lon="-1.23661">
        <ele>758.52</ele>
        <time>2021-08-05T12:10:30Z</time>
      </trkpt>
      <trkpt lat="42.84809" lon="-1.23724">
        <ele>762.95</ele>
        <time>2021-08-05T12:10:35Z</time>
      </trkpt>
      <trkpt lat="42.84833" lon="-1.23774">
        <ele>766.78</ele>
        <time>2021-08-05T12:10:39Z</time>
      </trkpt>
      <trkpt lat="42.8487" lon="-1.23841">
        <ele>770.47</ele>
        <time>2021-08-05T12:10:44Z</time>
      </trkpt>
      <trkpt lat="42.84884" lon="-1.23865">
        <ele>771.55</ele>
        <time>2021-08-05T12:10:46Z</time>
      </trkpt>
      <trkpt lat="42.84916" lon="-1.23974">
        <ele>775.48</ele>
        <time>2021-08-05T12:10:54Z</time>
      </trkpt>
      <trkpt lat="42.84927" lon="-1.24">
        <ele>776.59</ele>
        <time>2021-08-05T12:10:56Z</time>
      </trkpt>
      <trkpt lat="42.84963" lon="-1.24042">
        <ele>778.39</ele>
        <time>2021-08-05T12:11:00Z</time>
      </trkpt>
      <trkpt lat="42.84992" lon="-1.24072">
        <ele>779.34</ele>
        <time>2021-08-05T12:11:03Z</time>
      </trkpt>
      <trkpt lat="42.85046" lon="-1.24167">
        <ele>782.73</ele>
        <time>2021-08-05T12:11:11Z</time>
      </trkpt>
      <trkpt lat="42.85101" lon="-1.2418">
        <ele>786.7</ele>
        <time>2021-08-05T12:11:17Z</time>
      </trkpt>
      <trkpt lat="42.8519" lon="-1.24185">
        <ele>790.45</ele>
        <time>2021-08-05T12:11:26Z</time>
      </trkpt>
      <trkpt lat="42.85217" lon="-1.24185">
        <ele>792</ele>
        <time>2021-08-05T12:11:29Z</time>
      </trkpt>
      <trkpt lat="42.85236" lon="-1.24179">
        <ele>793.8</ele>
        <time>2021-08-05T12:11:32Z</time>
      </trkpt>
      <trkpt lat="42.85265" lon="-1.24213">
        <ele>797.93</ele>
        <time>2021-08-05T12:11:39Z</time>
      </trkpt>
      <trkpt lat="42.853" lon="-1.2428">
        <ele>802.16</ele>
        <time>2021-08-05T12:11:45Z</time>
      </trkpt>
      <trkpt lat="42.85324" lon="-1.24336">
        <ele>805.64</ele>
        <time>2021-08-05T12:11:49Z</time>
      </trkpt>
      <trkpt lat="42.8533" lon="-1.24405">
        <ele>809.41</ele>
        <time>2021-08-05T12:11:53Z</time>
      </trkpt>
      <trkpt lat="42.85348" lon="-1.24487">
        <ele>814.7</ele>
        <time>2021-08-05T12:11:59Z</time>
      </trkpt>
      <trkpt lat="42.85382" lon="-1.24552">
        <ele>819.17</ele>
        <time>2021-08-05T12:12:04Z</time>
      </trkpt>
      <trkpt lat="42.854" lon="-1.24567">
        <ele>823.76</ele>
        <time>2021-08-05T12:12:09Z</time>
      </trkpt>
      <trkpt lat="42.85392" lon="-1.2453">
        <ele>827.16</ele>
        <time>2021-08-05T12:12:14Z</time>
      </trkpt>
      <trkpt lat="42.85386" lon="-1.2452">
        <ele>827.66</ele>
        <time>2021-08-05T12:12:15Z</time>
      </trkpt>
      <trkpt lat="42.85369" lon="-1.24464">
        <ele>829.68</ele>
        <time>2021-08-05T12:12:19Z</time>
      </trkpt>
      <trkpt lat="42.85369" lon="-1.24397">
        <ele>832.21</ele>
        <time>2021-08-05T12:12:23Z</time>
      </trkpt>
      <trkpt lat="42.8537" lon="-1.24368">
        <ele>833.35</ele>
        <time>2021-08-05T12:12:25Z</time>
      </trkpt>
      <trkpt lat="42.85369" lon="-1.24345">
        <ele>834.56</ele>
        <time>2021-08-05T12:12:28Z</time>
      </trkpt>
      <trkpt lat="42.85382" lon="-1.24376">
        <ele>837.23</ele>
        <time>2021-08-05T12:12:35Z</time>
      </trkpt>
      <trkpt lat="42.85382" lon="-1.24385">
        <ele>837.57</ele>
        <time>2021-08-05T12:12:36Z</time>
      </trkpt>
      <trkpt lat="42.85385" lon="-1.24415">
        <ele>838.83</ele>
        <time>2021-08-05T12:12:39Z</time>
      </trkpt>
      <trkpt lat="42.85419" lon="-1.24497">
        <ele>842.58</ele>
        <time>2021-08-05T12:12:45Z</time>
      </trkpt>
      <trkpt lat="42.85463" lon="-1.24522">
        <ele>846.45</ele>
        <time>2021-08-05T12:12:50Z</time>
      </trkpt>
      <trkpt lat="42.85484" lon="-1.24521">
        <ele>848.06</ele>
        <time>2021-08-05T12:12:52Z</time>
      </trkpt>
      <trkpt lat="42.85511" lon="-1.24551">
        <ele>852.07</ele>
        <time>2021-08-05T12:12:57Z</time>
      </trkpt>
      <trkpt lat="42.85512" lon="-1.24619">
        <ele>855.53</ele>
        <time>2021-08-05T12:13:02Z</time>
      </trkpt>
      <trkpt lat="42.85529" lon="-1.24648">
        <ele>857.71</ele>
        <time>2021-08-05T12:13:05Z</time>
      </trkpt>
      <trkpt lat="42.8556" lon="-1.24686">
        <ele>861.97</ele>
        <time>2021-08-05T12:13:09Z</time>
      </trkpt>
      <trkpt lat="42.85595" lon="-1.24717">
        <ele>865.81</ele>
        <time>2021-08-05T12:13:13Z</time>
      </trkpt>
      <trkpt lat="42.8562" lon="-1.24731">
        <ele>868.94</ele>
        <time>2021-08-05T12:13:16Z</time>
      </trkpt>
      <trkpt lat="42.85639" lon="-1.24739">
        <ele>872.08</ele>
        <time>2021-08-05T12:13:19Z</time>
      </trkpt>
      <trkpt lat="42.85663" lon="-1.24748">
        <ele>875.11</ele>
        <time>2021-08-05T12:13:23Z</time>
      </trkpt>
      <trkpt lat="42.85704" lon="-1.24759">
        <ele>878.46</ele>
        <time>2021-08-05T12:13:31Z</time>
      </trkpt>
      <trkpt lat="42.8575" lon="-1.24767">
        <ele>881.57</ele>
        <time>2021-08-05T12:13:39Z</time>
      </trkpt>
      <trkpt lat="42.85774" lon="-1.24776">
        <ele>882.97</ele>
        <time>2021-08-05T12:13:42Z</time>
      </trkpt>
      <trkpt lat="42.85776" lon="-1.24801">
        <ele>886.34</ele>
        <time>2021-08-05T12:13:48Z</time>
      </trkpt>
      <trkpt lat="42.8577" lon="-1.24804">
        <ele>886.7</ele>
        <time>2021-08-05T12:13:49Z</time>
      </trkpt>
      <trkpt lat="42.85753" lon="-1.24812">
        <ele>887.47</ele>
        <time>2021-08-05T12:13:51Z</time>
      </trkpt>
      <trkpt lat="42.85715" lon="-1.24844">
        <ele>890.12</ele>
        <time>2021-08-05T12:13:57Z</time>
      </trkpt>
      <trkpt lat="42.85704" lon="-1.24893">
        <ele>893.06</ele>
        <time>2021-08-05T12:14:03Z</time>
      </trkpt>
      <trkpt lat="42.85712" lon="-1.24986">
        <ele>896.91</ele>
        <time>2021-08-05T12:14:11Z</time>
      </trkpt>
      <trkpt lat="42.85731" lon="-1.25053">
        <ele>900.69</ele>
        <time>2021-08-05T12:14:17Z</time>
      </trkpt>
      <trkpt lat="42.85745" lon="-1.25098">
        <ele>903.69</ele>
        <time>2021-08-05T12:14:21Z</time>
      </trkpt>
      <trkpt lat="42.85757" lon="-1.2514">
        <ele>906.74</ele>
        <time>2021-08-05T12:14:25Z</time>
      </trkpt>
      <trkpt lat="42.85773" lon="-1.25178">
        <ele>910.15</ele>
        <time>2021-08-05T12:14:29Z</time>
      </trkpt>
      <trkpt lat="42.85787" lon="-1.2522">
        <ele>913.64</ele>
        <time>2021-08-05T12:14:33Z</time>
      </trkpt>
      <trkpt lat="42.85799" lon="-1.25253">
        <ele>916.23</ele>
        <time>2021-08-05T12:14:36Z</time>
      </trkpt>
      <trkpt lat="42.85824" lon="-1.2528">
        <ele>919.18</ele>
        <time>2021-08-05T12:14:40Z</time>
      </trkpt>
      <trkpt lat="42.85847" lon="-1.25319">
        <ele>922.56</ele>
        <time>2021-08-05T12:14:45Z</time>
      </trkpt>
      <trkpt lat="42.85867" lon="-1.25363">
        <ele>926.38</ele>
        <time>2021-08-05T12:14:50Z</time>
      </trkpt>
      <trkpt lat="42.85889" lon="-1.25409">
        <ele>929.66</ele>
        <time>2021-08-05T12:14:55Z</time>
      </trkpt>
      <trkpt lat="42.85897" lon="-1.25426">
        <ele>931.63</ele>
        <time>2021-08-05T12:14:59Z</time>
      </trkpt>
      <trkpt lat="42.85906" lon="-1.25494">
        <ele>934.92</ele>
        <time>2021-08-05T12:15:07Z</time>
      </trkpt>
      <trkpt lat="42.85934" lon="-1.25539">
        <ele>938.79</ele>
        <time>2021-08-05T12:15:14Z</time>
      </trkpt>
      <trkpt lat="42.85963" lon="-1.25549">
        <ele>941.27</ele>
        <time>2021-08-05T12:15:18Z</time>
      </trkpt>
      <trkpt lat="42.86003" lon="-1.2555">
        <ele>944.61</ele>
        <time>2021-08-05T12:15:24Z</time>
      </trkpt>
      <trkpt lat="42.85999" lon="-1.25583">
        <ele>946.84</ele>
        <time>2021-08-05T12:15:28Z</time>
      </trkpt>
      <trkpt lat="42.85989" lon="-1.25618">
        <ele>948.95</ele>
        <time>2021-08-05T12:15:32Z</time>
      </trkpt>
      <trkpt lat="42.85992" lon="-1.25654">
        <ele>950.85</ele>
        <time>2021-08-05T12:15:36Z</time>
      </trkpt>
      <trkpt lat="42.86005" lon="-1.25702">
        <ele>953.7</ele>
        <time>2021-08-05T12:15:41Z</time>
      </trkpt>
      <trkpt lat="42.86009" lon="-1.25748">
        <ele>956.46</ele>
        <time>2021-08-05T12:15:46Z</time>
      </trkpt>
      <trkpt lat="42.86026" lon="-1.25789">
        <ele>958.67</ele>
        <time>2021-08-05T12:15:50Z</time>
      </trkpt>
      <trkpt lat="42.8608" lon="-1.25872">
        <ele>962.22</ele>
        <time>2021-08-05T12:15:59Z</time>
      </trkpt>
      <trkpt lat="42.86095" lon="-1.25888">
        <ele>963.47</ele>
        <time>2021-08-05T12:16:01Z</time>
      </trkpt>
      <trkpt lat="42.86133" lon="-1.25947">
        <ele>967.43</ele>
        <time>2021-08-05T12:16:08Z</time>
      </trkpt>
      <trkpt lat="42.86166" lon="-1.25974">
        <ele>971.1</ele>
        <time>2021-08-05T12:16:13Z</time>
      </trkpt>
      <trkpt lat="42.86204" lon="-1.26006">
        <ele>974.31</ele>
        <time>2021-08-05T12:16:18Z</time>
      </trkpt>
      <trkpt lat="42.86227" lon="-1.26019">
        <ele>976.39</ele>
        <time>2021-08-05T12:16:21Z</time>
      </trkpt>
      <trkpt lat="42.86257" lon="-1.26022">
        <ele>978.82</ele>
        <time>2021-08-05T12:16:25Z</time>
      </trkpt>
      <trkpt lat="42.8632" lon="-1.26044">
        <ele>983.81</ele>
        <time>2021-08-05T12:16:34Z</time>
      </trkpt>
      <trkpt lat="42.86325" lon="-1.26044">
        <ele>984.16</ele>
        <time>2021-08-05T12:16:35Z</time>
      </trkpt>
      <trkpt lat="42.86326" lon="-1.26076">
        <ele>985.42</ele>
        <time>2021-08-05T12:16:42Z</time>
      </trkpt>
      <trkpt lat="42.86313" lon="-1.2609">
        <ele>985.78</ele>
        <time>2021-08-05T12:16:44Z</time>
      </trkpt>
      <trkpt lat="42.863" lon="-1.26102">
        <ele>986.1</ele>
        <time>2021-08-05T12:16:46Z</time>
      </trkpt>
      <trkpt lat="42.86281" lon="-1.26113">
        <ele>986.73</ele>
        <time>2021-08-05T12:16:49Z</time>
      </trkpt>
      <trkpt lat="42.86258" lon="-1.26135">
        <ele>988.05</ele>
        <time>2021-08-05T12:16:53Z</time>
      </trkpt>
      <trkpt lat="42.8623" lon="-1.26187">
        <ele>991.73</ele>
        <time>2021-08-05T12:17:01Z</time>
      </trkpt>
      <trkpt lat="42.86234" lon="-1.26211">
        <ele>993.25</ele>
        <time>2021-08-05T12:17:04Z</time>
      </trkpt>
      <trkpt lat="42.86244" lon="-1.26246">
        <ele>996.95</ele>
        <time>2021-08-05T12:17:11Z</time>
      </trkpt>
      <trkpt lat="42.86247" lon="-1.2625">
        <ele>997.51</ele>
        <time>2021-08-05T12:17:12Z</time>
      </trkpt>
      <trkpt lat="42.86278" lon="-1.26283">
        <ele>1000.94</ele>
        <time>2021-08-05T12:17:19Z</time>
      </trkpt>
      <trkpt lat="42.86273" lon="-1.26308">
        <ele>1004.09</ele>
        <time>2021-08-05T12:17:26Z</time>
      </trkpt>
      <trkpt lat="42.86262" lon="-1.26333">
        <ele>1006.78</ele>
        <time>2021-08-05T12:17:33Z</time>
      </trkpt>
      <trkpt lat="42.86265" lon="-1.26353">
        <ele>1008.47</ele>
        <time>2021-08-05T12:17:37Z</time>
      </trkpt>
      <trkpt lat="42.86244" lon="-1.26373">
        <ele>1010.54</ele>
        <time>2021-08-05T12:17:42Z</time>
      </trkpt>
      <trkpt lat="42.86185" lon="-1.26378">
        <ele>1014.41</ele>
        <time>2021-08-05T12:17:49Z</time>
      </trkpt>
      <trkpt lat="42.86082" lon="-1.26324">
        <ele>1017.55</ele>
        <time>2021-08-05T12:18:01Z</time>
      </trkpt>
      <trkpt lat="42.86075" lon="-1.26343">
        <ele>1014.21</ele>
        <time>2021-08-05T12:18:07Z</time>
      </trkpt>
      <trkpt lat="42.86081" lon="-1.26346">
        <ele>1013.79</ele>
        <time>2021-08-05T12:18:08Z</time>
      </trkpt>
      <trkpt lat="42.86141" lon="-1.26405">
        <ele>1010.07</ele>
        <time>2021-08-05T12:18:18Z</time>
      </trkpt>
      <trkpt lat="42.86184" lon="-1.26449">
        <ele>1006.83</ele>
        <time>2021-08-05T12:18:25Z</time>
      </trkpt>
      <trkpt lat="42.86189" lon="-1.26456">
        <ele>1006.31</ele>
        <time>2021-08-05T12:18:26Z</time>
      </trkpt>
      <trkpt lat="42.8618" lon="-1.26512">
        <ele>1002.29</ele>
        <time>2021-08-05T12:18:32Z</time>
      </trkpt>
      <trkpt lat="42.86165" lon="-1.26542">
        <ele>998.96</ele>
        <time>2021-08-05T12:18:36Z</time>
      </trkpt>
      <trkpt lat="42.86176" lon="-1.2657">
        <ele>996.72</ele>
        <time>2021-08-05T12:18:39Z</time>
      </trkpt>
      <trkpt lat="42.86196" lon="-1.26598">
        <ele>993.74</ele>
        <time>2021-08-05T12:18:43Z</time>
      </trkpt>
      <trkpt lat="42.86179" lon="-1.26633">
        <ele>989.71</ele>
        <time>2021-08-05T12:18:49Z</time>
      </trkpt>
      <trkpt lat="42.8614" lon="-1.26642">
        <ele>986.53</ele>
        <time>2021-08-05T12:18:54Z</time>
      </trkpt>
      <trkpt lat="42.86124" lon="-1.26681">
        <ele>983.19</ele>
        <time>2021-08-05T12:18:59Z</time>
      </trkpt>
      <trkpt lat="42.86125" lon="-1.26691">
        <ele>982.51</ele>
        <time>2021-08-05T12:19:00Z</time>
      </trkpt>
      <trkpt lat="42.86129" lon="-1.26746">
        <ele>978.53</ele>
        <time>2021-08-05T12:19:07Z</time>
      </trkpt>
      <trkpt lat="42.86142" lon="-1.26773">
        <ele>976.13</ele>
        <time>2021-08-05T12:19:11Z</time>
      </trkpt>
      <trkpt lat="42.86151" lon="-1.26784">
        <ele>974.94</ele>
        <time>2021-08-05T12:19:13Z</time>
      </trkpt>
      <trkpt lat="42.86145" lon="-1.26815">
        <ele>972.76</ele>
        <time>2021-08-05T12:19:17Z</time>
      </trkpt>
      <trkpt lat="42.86121" lon="-1.2686">
        <ele>968.71</ele>
        <time>2021-08-05T12:19:23Z</time>
      </trkpt>
      <trkpt lat="42.8611" lon="-1.2688">
        <ele>966.3</ele>
        <time>2021-08-05T12:19:26Z</time>
      </trkpt>
      <trkpt lat="42.8611" lon="-1.26912">
        <ele>962.39</ele>
        <time>2021-08-05T12:19:31Z</time>
      </trkpt>
      <trkpt lat="42.86124" lon="-1.26944">
        <ele>959.35</ele>
        <time>2021-08-05T12:19:35Z</time>
      </trkpt>
      <trkpt lat="42.86153" lon="-1.2699">
        <ele>955.15</ele>
        <time>2021-08-05T12:19:41Z</time>
      </trkpt>
      <trkpt lat="42.86159" lon="-1.26998">
        <ele>954.45</ele>
        <time>2021-08-05T12:19:42Z</time>
      </trkpt>
      <trkpt lat="42.86178" lon="-1.27017">
        <ele>951.64</ele>
        <time>2021-08-05T12:19:45Z</time>
      </trkpt>
      <trkpt lat="42.86224" lon="-1.27049">
        <ele>947.75</ele>
        <time>2021-08-05T12:19:51Z</time>
      </trkpt>
      <trkpt lat="42.8627" lon="-1.27104">
        <ele>944.61</ele>
        <time>2021-08-05T12:19:57Z</time>
      </trkpt>
      <trkpt lat="42.86304" lon="-1.27127">
        <ele>941.77</ele>
        <time>2021-08-05T12:20:01Z</time>
      </trkpt>
      <trkpt lat="42.86351" lon="-1.2714">
        <ele>937.65</ele>
        <time>2021-08-05T12:20:06Z</time>
      </trkpt>
      <trkpt lat="42.8636" lon="-1.2714">
        <ele>936.84</ele>
        <time>2021-08-05T12:20:07Z</time>
      </trkpt>
      <trkpt lat="42.86401" lon="-1.27126">
        <ele>932.82</ele>
        <time>2021-08-05T12:20:12Z</time>
      </trkpt>
      <trkpt lat="42.86413" lon="-1.27114">
        <ele>931.1</ele>
        <time>2021-08-05T12:20:14Z</time>
      </trkpt>
      <trkpt lat="42.86451" lon="-1.27133">
        <ele>925.72</ele>
        <time>2021-08-05T12:20:21Z</time>
      </trkpt>
      <trkpt lat="42.86471" lon="-1.27158">
        <ele>923.76</ele>
        <time>2021-08-05T12:20:24Z</time>
      </trkpt>
      <trkpt lat="42.86517" lon="-1.2721">
        <ele>919.85</ele>
        <time>2021-08-05T12:20:30Z</time>
      </trkpt>
      <trkpt lat="42.86558" lon="-1.27258">
        <ele>916.22</ele>
        <time>2021-08-05T12:20:35Z</time>
      </trkpt>
      <trkpt lat="42.86577" lon="-1.27281">
        <ele>913.93</ele>
        <time>2021-08-05T12:20:38Z</time>
      </trkpt>
      <trkpt lat="42.86608" lon="-1.27286">
        <ele>909.91</ele>
        <time>2021-08-05T12:20:43Z</time>
      </trkpt>
      <trkpt lat="42.86639" lon="-1.27267">
        <ele>906.23</ele>
        <time>2021-08-05T12:20:48Z</time>
      </trkpt>
      <trkpt lat="42.86651" lon="-1.27308">
        <ele>902.11</ele>
        <time>2021-08-05T12:20:54Z</time>
      </trkpt>
      <trkpt lat="42.86647" lon="-1.27321">
        <ele>901.47</ele>
        <time>2021-08-05T12:20:55Z</time>
      </trkpt>
      <trkpt lat="42.86627" lon="-1.27385">
        <ele>897.39</ele>
        <time>2021-08-05T12:21:01Z</time>
      </trkpt>
      <trkpt lat="42.86638" lon="-1.2744">
        <ele>893.22</ele>
        <time>2021-08-05T12:21:07Z</time>
      </trkpt>
      <trkpt lat="42.86685" lon="-1.27473">
        <ele>889.75</ele>
        <time>2021-08-05T12:21:12Z</time>
      </trkpt>
      <trkpt lat="42.86693" lon="-1.27481">
        <ele>888.9</ele>
        <time>2021-08-05T12:21:13Z</time>
      </trkpt>
      <trkpt lat="42.86716" lon="-1.2751">
        <ele>886.35</ele>
        <time>2021-08-05T12:21:16Z</time>
      </trkpt>
      <trkpt lat="42.86733" lon="-1.2754">
        <ele>884.13</ele>
        <time>2021-08-05T12:21:19Z</time>
      </trkpt>
      <trkpt lat="42.8675" lon="-1.2756">
        <ele>881.42</ele>
        <time>2021-08-05T12:21:22Z</time>
      </trkpt>
      <trkpt lat="42.86785" lon="-1.27564">
        <ele>877.39</ele>
        <time>2021-08-05T12:21:26Z</time>
      </trkpt>
      <trkpt lat="42.86817" lon="-1.2757">
        <ele>874.78</ele>
        <time>2021-08-05T12:21:29Z</time>
      </trkpt>
      <trkpt lat="42.86852" lon="-1.27598">
        <ele>870.89</ele>
        <time>2021-08-05T12:21:33Z</time>
      </trkpt>
      <trkpt lat="42.86865" lon="-1.27613">
        <ele>869.01</ele>
        <time>2021-08-05T12:21:35Z</time>
      </trkpt>
      <trkpt lat="42.86904" lon="-1.27625">
        <ele>864.44</ele>
        <time>2021-08-05T12:21:40Z</time>
      </trkpt>
      <trkpt lat="42.8695" lon="-1.27639">
        <ele>858.71</ele>
        <time>2021-08-05T12:21:46Z</time>
      </trkpt>
      <trkpt lat="42.86959" lon="-1.27641">
        <ele>857.86</ele>
        <time>2021-08-05T12:21:47Z</time>
      </trkpt>
      <trkpt lat="42.87002" lon="-1.27653">
        <ele>853.31</ele>
        <time>2021-08-05T12:21:52Z</time>
      </trkpt>
      <trkpt lat="42.87028" lon="-1.27663">
        <ele>850.66</ele>
        <time>2021-08-05T12:21:55Z</time>
      </trkpt>
      <trkpt lat="42.87069" lon="-1.277">
        <ele>846.2</ele>
        <time>2021-08-05T12:22:00Z</time>
      </trkpt>
      <trkpt lat="42.87101" lon="-1.27725">
        <ele>843.13</ele>
        <time>2021-08-05T12:22:04Z</time>
      </trkpt>
      <trkpt lat="42.87132" lon="-1.27747">
        <ele>839.97</ele>
        <time>2021-08-05T12:22:08Z</time>
      </trkpt>
      <trkpt lat="42.87168" lon="-1.27764">
        <ele>835.68</ele>
        <time>2021-08-05T12:22:13Z</time>
      </trkpt>
      <trkpt lat="42.87193" lon="-1.2777">
        <ele>833.31</ele>
        <time>2021-08-05T12:22:16Z</time>
      </trkpt>
      <trkpt lat="42.87225" lon="-1.27794">
        <ele>830.54</ele>
        <time>2021-08-05T12:22:20Z</time>
      </trkpt>
      <trkpt lat="42.87241" lon="-1.27809">
        <ele>829.15</ele>
        <time>2021-08-05T12:22:22Z</time>
      </trkpt>
      <trkpt lat="42.87274" lon="-1.27828">
        <ele>826.41</ele>
        <time>2021-08-05T12:22:26Z</time>
      </trkpt>
      <trkpt lat="42.87315" lon="-1.27886">
        <ele>822.86</ele>
        <time>2021-08-05T12:22:34Z</time>
      </trkpt>
      <trkpt lat="42.87362" lon="-1.27901">
        <ele>820.32</ele>
        <time>2021-08-05T12:22:40Z</time>
      </trkpt>
      <trkpt lat="42.8738" lon="-1.27912">
        <ele>819.66</ele>
        <time>2021-08-05T12:22:42Z</time>
      </trkpt>
      <trkpt lat="42.87422" lon="-1.27918">
        <ele>819.15</ele>
        <time>2021-08-05T12:22:46Z</time>
      </trkpt>
      <trkpt lat="42.87479" lon="-1.27938">
        <ele>818.91</ele>
        <time>2021-08-05T12:22:52Z</time>
      </trkpt>
      <trkpt lat="42.87504" lon="-1.2798">
        <ele>818.36</ele>
        <time>2021-08-05T12:22:56Z</time>
      </trkpt>
      <trkpt lat="42.87517" lon="-1.28001">
        <ele>818.06</ele>
        <time>2021-08-05T12:22:58Z</time>
      </trkpt>
      <trkpt lat="42.87561" lon="-1.28026">
        <ele>814.83</ele>
        <time>2021-08-05T12:23:05Z</time>
      </trkpt>
      <trkpt lat="42.8759" lon="-1.28044">
        <ele>811.79</ele>
        <time>2021-08-05T12:23:10Z</time>
      </trkpt>
      <trkpt lat="42.87598" lon="-1.2806">
        <ele>810.42</ele>
        <time>2021-08-05T12:23:12Z</time>
      </trkpt>
      <trkpt lat="42.87631" lon="-1.28125">
        <ele>806.39</ele>
        <time>2021-08-05T12:23:20Z</time>
      </trkpt>
      <trkpt lat="42.87628" lon="-1.28122">
        <ele>805.09</ele>
        <time>2021-08-05T12:23:28Z</time>
      </trkpt>
      <trkpt lat="42.87643" lon="-1.28136">
        <ele>804.65</ele>
        <time>2021-08-05T12:23:43Z</time>
      </trkpt>
      <trkpt lat="42.87657" lon="-1.28165">
        <ele>806.16</ele>
        <time>2021-08-05T12:23:52Z</time>
      </trkpt>
      <trkpt lat="42.87667" lon="-1.28196">
        <ele>806.33</ele>
        <time>2021-08-05T12:23:56Z</time>
      </trkpt>
      <trkpt lat="42.8768" lon="-1.28224">
        <ele>805.45</ele>
        <time>2021-08-05T12:24:00Z</time>
      </trkpt>
      <trkpt lat="42.8769" lon="-1.28249">
        <ele>804.15</ele>
        <time>2021-08-05T12:24:04Z</time>
      </trkpt>
      <trkpt lat="42.87721" lon="-1.28317">
        <ele>801.25</ele>
        <time>2021-08-05T12:24:12Z</time>
      </trkpt>
      <trkpt lat="42.87779" lon="-1.28357">
        <ele>799.05</ele>
        <time>2021-08-05T12:24:19Z</time>
      </trkpt>
      <trkpt lat="42.87801" lon="-1.28364">
        <ele>798.88</ele>
        <time>2021-08-05T12:24:21Z</time>
      </trkpt>
      <trkpt lat="42.87838" lon="-1.284">
        <ele>798.68</ele>
        <time>2021-08-05T12:24:25Z</time>
      </trkpt>
      <trkpt lat="42.87857" lon="-1.28426">
        <ele>798.55</ele>
        <time>2021-08-05T12:24:27Z</time>
      </trkpt>
      <trkpt lat="42.87884" lon="-1.28497">
        <ele>797.78</ele>
        <time>2021-08-05T12:24:31Z</time>
      </trkpt>
      <trkpt lat="42.8791" lon="-1.28549">
        <ele>796.71</ele>
        <time>2021-08-05T12:24:34Z</time>
      </trkpt>
      <trkpt lat="42.8794" lon="-1.287">
        <ele>793.68</ele>
        <time>2021-08-05T12:24:41Z</time>
      </trkpt>
      <trkpt lat="42.87957" lon="-1.28796">
        <ele>790.25</ele>
        <time>2021-08-05T12:24:45Z</time>
      </trkpt>
      <trkpt lat="42.87977" lon="-1.28882">
        <ele>786.72</ele>
        <time>2021-08-05T12:24:49Z</time>
      </trkpt>
      <trkpt lat="42.87982" lon="-1.28899">
        <ele>785.83</ele>
        <time>2021-08-05T12:24:50Z</time>
      </trkpt>
      <trkpt lat="42.88022" lon="-1.28943">
        <ele>781.93</ele>
        <time>2021-08-05T12:24:54Z</time>
      </trkpt>
      <trkpt lat="42.88142" lon="-1.2906">
        <ele>777.94</ele>
        <time>2021-08-05T12:25:03Z</time>
      </trkpt>
      <trkpt lat="42.88184" lon="-1.29128">
        <ele>775.83</ele>
        <time>2021-08-05T12:25:07Z</time>
      </trkpt>
      <trkpt lat="42.88244" lon="-1.29178">
        <ele>771.92</ele>
        <time>2021-08-05T12:25:12Z</time>
      </trkpt>
      <trkpt lat="42.88266" lon="-1.29201">
        <ele>769.92</ele>
        <time>2021-08-05T12:25:14Z</time>
      </trkpt>
      <trkpt lat="42.8829" lon="-1.29274">
        <ele>765.73</ele>
        <time>2021-08-05T12:25:18Z</time>
      </trkpt>
      <trkpt lat="42.88298" lon="-1.29326">
        <ele>761.63</ele>
        <time>2021-08-05T12:25:21Z</time>
      </trkpt>
      <trkpt lat="42.88329" lon="-1.2937">
        <ele>755.9</ele>
        <time>2021-08-05T12:25:25Z</time>
      </trkpt>
      <trkpt lat="42.88373" lon="-1.29435">
        <ele>749.25</ele>
        <time>2021-08-05T12:25:30Z</time>
      </trkpt>
      <trkpt lat="42.88401" lon="-1.29479">
        <ele>745.41</ele>
        <time>2021-08-05T12:25:33Z</time>
      </trkpt>
      <trkpt lat="42.88426" lon="-1.29498">
        <ele>742.78</ele>
        <time>2021-08-05T12:25:35Z</time>
      </trkpt>
      <trkpt lat="42.88465" lon="-1.29526">
        <ele>739.48</ele>
        <time>2021-08-05T12:25:38Z</time>
      </trkpt>
      <trkpt lat="42.88499" lon="-1.29586">
        <ele>735.98</ele>
        <time>2021-08-05T12:25:42Z</time>
      </trkpt>
      <trkpt lat="42.88513" lon="-1.2962">
        <ele>734.48</ele>
        <time>2021-08-05T12:25:44Z</time>
      </trkpt>
      <trkpt lat="42.88575" lon="-1.29708">
        <ele>730.29</ele>
        <time>2021-08-05T12:25:50Z</time>
      </trkpt>
      <trkpt lat="42.88625" lon="-1.2977">
        <ele>726.93</ele>
        <time>2021-08-05T12:25:54Z</time>
      </trkpt>
      <trkpt lat="42.88655" lon="-1.29827">
        <ele>723.82</ele>
        <time>2021-08-05T12:25:57Z</time>
      </trkpt>
      <trkpt lat="42.88662" lon="-1.29845">
        <ele>722.74</ele>
        <time>2021-08-05T12:25:58Z</time>
      </trkpt>
      <trkpt lat="42.88667" lon="-1.29917">
        <ele>717.52</ele>
        <time>2021-08-05T12:26:02Z</time>
      </trkpt>
      <trkpt lat="42.88683" lon="-1.2998">
        <ele>711.84</ele>
        <time>2021-08-05T12:26:06Z</time>
      </trkpt>
      <trkpt lat="42.88717" lon="-1.30008">
        <ele>707.98</ele>
        <time>2021-08-05T12:26:09Z</time>
      </trkpt>
      <trkpt lat="42.88744" lon="-1.30029">
        <ele>704.18</ele>
        <time>2021-08-05T12:26:12Z</time>
      </trkpt>
      <trkpt lat="42.88744" lon="-1.30058">
        <ele>699.91</ele>
        <time>2021-08-05T12:26:16Z</time>
      </trkpt>
      <trkpt lat="42.88716" lon="-1.30042">
        <ele>696.6</ele>
        <time>2021-08-05T12:26:20Z</time>
      </trkpt>
      <trkpt lat="42.88706" lon="-1.30036">
        <ele>695.26</ele>
        <time>2021-08-05T12:26:21Z</time>
      </trkpt>
      <trkpt lat="42.88676" lon="-1.30002">
        <ele>693.24</ele>
        <time>2021-08-05T12:26:25Z</time>
      </trkpt>
      <trkpt lat="42.88648" lon="-1.30005">
        <ele>690.8</ele>
        <time>2021-08-05T12:26:30Z</time>
      </trkpt>
      <trkpt lat="42.88672" lon="-1.30038">
        <ele>688.9</ele>
        <time>2021-08-05T12:26:34Z</time>
      </trkpt>
      <trkpt lat="42.88735" lon="-1.30098">
        <ele>685.19</ele>
        <time>2021-08-05T12:26:40Z</time>
      </trkpt>
      <trkpt lat="42.88801" lon="-1.3014">
        <ele>680.3</ele>
        <time>2021-08-05T12:26:45Z</time>
      </trkpt>
      <trkpt lat="42.88839" lon="-1.3017">
        <ele>676.7</ele>
        <time>2021-08-05T12:26:48Z</time>
      </trkpt>
      <trkpt lat="42.88873" lon="-1.30201">
        <ele>672.54</ele>
        <time>2021-08-05T12:26:51Z</time>
      </trkpt>
      <trkpt lat="42.88898" lon="-1.30235">
        <ele>668.37</ele>
        <time>2021-08-05T12:26:54Z</time>
      </trkpt>
      <trkpt lat="42.88936" lon="-1.30261">
        <ele>663.02</ele>
        <time>2021-08-05T12:26:58Z</time>
      </trkpt>
      <trkpt lat="42.8897" lon="-1.30245">
        <ele>659.48</ele>
        <time>2021-08-05T12:27:01Z</time>
      </trkpt>
      <trkpt lat="42.8902" lon="-1.30218">
        <ele>655.35</ele>
        <time>2021-08-05T12:27:05Z</time>
      </trkpt>
      <trkpt lat="42.89046" lon="-1.30203">
        <ele>653.37</ele>
        <time>2021-08-05T12:27:07Z</time>
      </trkpt>
      <trkpt lat="42.89098" lon="-1.30194">
        <ele>649.21</ele>
        <time>2021-08-05T12:27:11Z</time>
      </trkpt>
      <trkpt lat="42.89139" lon="-1.30194">
        <ele>645.97</ele>
        <time>2021-08-05T12:27:14Z</time>
      </trkpt>
      <trkpt lat="42.89187" lon="-1.30213">
        <ele>641.72</ele>
        <time>2021-08-05T12:27:18Z</time>
      </trkpt>
      <trkpt lat="42.89226" lon="-1.30228">
        <ele>638.58</ele>
        <time>2021-08-05T12:27:21Z</time>
      </trkpt>
      <trkpt lat="42.89253" lon="-1.30236">
        <ele>636.65</ele>
        <time>2021-08-05T12:27:23Z</time>
      </trkpt>
      <trkpt lat="42.89312" lon="-1.30271">
        <ele>631.79</ele>
        <time>2021-08-05T12:27:28Z</time>
      </trkpt>
      <trkpt lat="42.89332" lon="-1.30283">
        <ele>629.85</ele>
        <time>2021-08-05T12:27:30Z</time>
      </trkpt>
      <trkpt lat="42.89365" lon="-1.30321">
        <ele>627.01</ele>
        <time>2021-08-05T12:27:34Z</time>
      </trkpt>
      <trkpt lat="42.89391" lon="-1.3037">
        <ele>624.48</ele>
        <time>2021-08-05T12:27:38Z</time>
      </trkpt>
      <trkpt lat="42.89404" lon="-1.3039">
        <ele>623.22</ele>
        <time>2021-08-05T12:27:40Z</time>
      </trkpt>
      <trkpt lat="42.89458" lon="-1.30424">
        <ele>619.22</ele>
        <time>2021-08-05T12:27:48Z</time>
      </trkpt>
      <trkpt lat="42.89463" lon="-1.30425">
        <ele>618.9</ele>
        <time>2021-08-05T12:27:49Z</time>
      </trkpt>
      <trkpt lat="42.89468" lon="-1.30422">
        <ele>618.54</ele>
        <time>2021-08-05T12:27:50Z</time>
      </trkpt>
      <trkpt lat="42.89473" lon="-1.30418">
        <ele>618.19</ele>
        <time>2021-08-05T12:27:51Z</time>
      </trkpt>
      <trkpt lat="42.89477" lon="-1.30412">
        <ele>617.89</ele>
        <time>2021-08-05T12:27:52Z</time>
      </trkpt>
      <trkpt lat="42.8948" lon="-1.30407">
        <ele>617.57</ele>
        <time>2021-08-05T12:27:53Z</time>
      </trkpt>
      <trkpt lat="42.89485" lon="-1.30398">
        <ele>616.98</ele>
        <time>2021-08-05T12:27:55Z</time>
      </trkpt>
      <trkpt lat="42.89509" lon="-1.3038">
        <ele>615.83</ele>
        <time>2021-08-05T12:28:01Z</time>
      </trkpt>
      <trkpt lat="42.89524" lon="-1.30372">
        <ele>616.01</ele>
        <time>2021-08-05T12:28:11Z</time>
      </trkpt>
      <trkpt lat="42.8953" lon="-1.30365">
        <ele>616.32</ele>
        <time>2021-08-05T12:28:28Z</time>
      </trkpt>
      <trkpt lat="42.89526" lon="-1.30347">
        <ele>616.59</ele>
        <time>2021-08-05T12:28:32Z</time>
      </trkpt>
      <trkpt lat="42.89519" lon="-1.30328">
        <ele>616.91</ele>
        <time>2021-08-05T12:28:35Z</time>
      </trkpt>
      <trkpt lat="42.89493" lon="-1.30223">
        <ele>617.76</ele>
        <time>2021-08-05T12:28:48Z</time>
      </trkpt>
      <trkpt lat="42.89496" lon="-1.30122">
        <ele>618.46</ele>
        <time>2021-08-05T12:29:00Z</time>
      </trkpt>
      <trkpt lat="42.89524" lon="-1.30013">
        <ele>620.67</ele>
        <time>2021-08-05T12:29:10Z</time>
      </trkpt>
      <trkpt lat="42.89562" lon="-1.29886">
        <ele>623.78</ele>
        <time>2021-08-05T12:29:19Z</time>
      </trkpt>
      <trkpt lat="42.89596" lon="-1.29823">
        <ele>625.43</ele>
        <time>2021-08-05T12:29:23Z</time>
      </trkpt>
      <trkpt lat="42.89698" lon="-1.29707">
        <ele>628.6</ele>
        <time>2021-08-05T12:29:31Z</time>
      </trkpt>
      <trkpt lat="42.89789" lon="-1.2969">
        <ele>631.24</ele>
        <time>2021-08-05T12:29:36Z</time>
      </trkpt>
      <trkpt lat="42.8981" lon="-1.29695">
        <ele>631.24</ele>
        <time>2021-08-05T12:29:37Z</time>
      </trkpt>
      <trkpt lat="42.89851" lon="-1.29705">
        <ele>632.07</ele>
        <time>2021-08-05T12:29:39Z</time>
      </trkpt>
      <trkpt lat="42.89938" lon="-1.29666">
        <ele>633.04</ele>
        <time>2021-08-05T12:29:44Z</time>
      </trkpt>
      <trkpt lat="42.89963" lon="-1.29623">
        <ele>633.07</ele>
        <time>2021-08-05T12:29:46Z</time>
      </trkpt>
      <trkpt lat="42.90074" lon="-1.29512">
        <ele>632.09</ele>
        <time>2021-08-05T12:29:53Z</time>
      </trkpt>
      <trkpt lat="42.90254" lon="-1.2944">
        <ele>633.87</ele>
        <time>2021-08-05T12:30:03Z</time>
      </trkpt>
      <trkpt lat="42.90344" lon="-1.29469">
        <ele>636.45</ele>
        <time>2021-08-05T12:30:09Z</time>
      </trkpt>
      <trkpt lat="42.90366" lon="-1.29502">
        <ele>637.25</ele>
        <time>2021-08-05T12:30:11Z</time>
      </trkpt>
      <trkpt lat="42.90438" lon="-1.29601">
        <ele>639.56</ele>
        <time>2021-08-05T12:30:17Z</time>
      </trkpt>
      <trkpt lat="42.90491" lon="-1.29714">
        <ele>640.92</ele>
        <time>2021-08-05T12:30:23Z</time>
      </trkpt>
      <trkpt lat="42.90577" lon="-1.29772">
        <ele>641.56</ele>
        <time>2021-08-05T12:30:29Z</time>
      </trkpt>
      <trkpt lat="42.9067" lon="-1.29798">
        <ele>641.88</ele>
        <time>2021-08-05T12:30:35Z</time>
      </trkpt>
      <trkpt lat="42.90783" lon="-1.29788">
        <ele>642.09</ele>
        <time>2021-08-05T12:30:42Z</time>
      </trkpt>
      <trkpt lat="42.90909" lon="-1.29745">
        <ele>643.38</ele>
        <time>2021-08-05T12:30:50Z</time>
      </trkpt>
      <trkpt lat="42.91011" lon="-1.29752">
        <ele>645.53</ele>
        <time>2021-08-05T12:30:56Z</time>
      </trkpt>
      <trkpt lat="42.91125" lon="-1.29828">
        <ele>648.21</ele>
        <time>2021-08-05T12:31:03Z</time>
      </trkpt>
      <trkpt lat="42.91208" lon="-1.2982">
        <ele>650.35</ele>
        <time>2021-08-05T12:31:08Z</time>
      </trkpt>
      <trkpt lat="42.91328" lon="-1.29754">
        <ele>654.21</ele>
        <time>2021-08-05T12:31:16Z</time>
      </trkpt>
      <trkpt lat="42.91375" lon="-1.29742">
        <ele>655.4</ele>
        <time>2021-08-05T12:31:19Z</time>
      </trkpt>
      <trkpt lat="42.91509" lon="-1.29641">
        <ele>657.86</ele>
        <time>2021-08-05T12:31:28Z</time>
      </trkpt>
      <trkpt lat="42.91523" lon="-1.29629">
        <ele>658.03</ele>
        <time>2021-08-05T12:31:29Z</time>
      </trkpt>
      <trkpt lat="42.91598" lon="-1.295">
        <ele>659.54</ele>
        <time>2021-08-05T12:31:36Z</time>
      </trkpt>
      <trkpt lat="42.91636" lon="-1.29384">
        <ele>660.39</ele>
        <time>2021-08-05T12:31:43Z</time>
      </trkpt>
      <trkpt lat="42.91641" lon="-1.29371">
        <ele>660.47</ele>
        <time>2021-08-05T12:31:44Z</time>
      </trkpt>
      <trkpt lat="42.91674" lon="-1.29328">
        <ele>661.18</ele>
        <time>2021-08-05T12:31:48Z</time>
      </trkpt>
      <trkpt lat="42.91699" lon="-1.29285">
        <ele>661.63</ele>
        <time>2021-08-05T12:31:51Z</time>
      </trkpt>
      <trkpt lat="42.91718" lon="-1.29238">
        <ele>662.39</ele>
        <time>2021-08-05T12:31:54Z</time>
      </trkpt>
      <trkpt lat="42.91729" lon="-1.29209">
        <ele>662.72</ele>
        <time>2021-08-05T12:31:56Z</time>
      </trkpt>
      <trkpt lat="42.91711" lon="-1.29085">
        <ele>664.14</ele>
        <time>2021-08-05T12:32:03Z</time>
      </trkpt>
      <trkpt lat="42.91697" lon="-1.29006">
        <ele>665.95</ele>
        <time>2021-08-05T12:32:08Z</time>
      </trkpt>
      <trkpt lat="42.91699" lon="-1.28992">
        <ele>666.34</ele>
        <time>2021-08-05T12:32:09Z</time>
      </trkpt>
      <trkpt lat="42.91702" lon="-1.2898">
        <ele>666.76</ele>
        <time>2021-08-05T12:32:10Z</time>
      </trkpt>
      <trkpt lat="42.91706" lon="-1.28969">
        <ele>667.21</ele>
        <time>2021-08-05T12:32:11Z</time>
      </trkpt>
      <trkpt lat="42.91712" lon="-1.28958">
        <ele>667.63</ele>
        <time>2021-08-05T12:32:12Z</time>
      </trkpt>
      <trkpt lat="42.9172" lon="-1.2895">
        <ele>668.08</ele>
        <time>2021-08-05T12:32:13Z</time>
      </trkpt>
      <trkpt lat="42.91733" lon="-1.28948">
        <ele>668.6</ele>
        <time>2021-08-05T12:32:14Z</time>
      </trkpt>
      <trkpt lat="42.91744" lon="-1.28946">
        <ele>669.11</ele>
        <time>2021-08-05T12:32:15Z</time>
      </trkpt>
      <trkpt lat="42.91755" lon="-1.2895">
        <ele>669.63</ele>
        <time>2021-08-05T12:32:16Z</time>
      </trkpt>
      <trkpt lat="42.91764" lon="-1.28955">
        <ele>670.11</ele>
        <time>2021-08-05T12:32:17Z</time>
      </trkpt>
      <trkpt lat="42.91771" lon="-1.28962">
        <ele>670.54</ele>
        <time>2021-08-05T12:32:18Z</time>
      </trkpt>
      <trkpt lat="42.91777" lon="-1.28975">
        <ele>670.98</ele>
        <time>2021-08-05T12:32:19Z</time>
      </trkpt>
      <trkpt lat="42.91782" lon="-1.28988">
        <ele>671.37</ele>
        <time>2021-08-05T12:32:20Z</time>
      </trkpt>
      <trkpt lat="42.91787" lon="-1.29001">
        <ele>671.72</ele>
        <time>2021-08-05T12:32:21Z</time>
      </trkpt>
      <trkpt lat="42.91793" lon="-1.29016">
        <ele>672.12</ele>
        <time>2021-08-05T12:32:22Z</time>
      </trkpt>
      <trkpt lat="42.91815" lon="-1.29051">
        <ele>673.09</ele>
        <time>2021-08-05T12:32:25Z</time>
      </trkpt>
      <trkpt lat="42.91838" lon="-1.29064">
        <ele>674.3</ele>
        <time>2021-08-05T12:32:28Z</time>
      </trkpt>
      <trkpt lat="42.91853" lon="-1.29085">
        <ele>675.86</ele>
        <time>2021-08-05T12:32:31Z</time>
      </trkpt>
      <trkpt lat="42.91899" lon="-1.29082">
        <ele>677.94</ele>
        <time>2021-08-05T12:32:37Z</time>
      </trkpt>
      <trkpt lat="42.91967" lon="-1.29072">
        <ele>681.03</ele>
        <time>2021-08-05T12:32:43Z</time>
      </trkpt>
      <trkpt lat="42.92072" lon="-1.29098">
        <ele>685.35</ele>
        <time>2021-08-05T12:32:49Z</time>
      </trkpt>
      <trkpt lat="42.92148" lon="-1.29126">
        <ele>689.41</ele>
        <time>2021-08-05T12:32:53Z</time>
      </trkpt>
      <trkpt lat="42.92209" lon="-1.29129">
        <ele>691.25</ele>
        <time>2021-08-05T12:32:56Z</time>
      </trkpt>
      <trkpt lat="42.92266" lon="-1.29128">
        <ele>694.77</ele>
        <time>2021-08-05T12:32:59Z</time>
      </trkpt>
      <trkpt lat="42.92298" lon="-1.29135">
        <ele>696.32</ele>
        <time>2021-08-05T12:33:01Z</time>
      </trkpt>
      <trkpt lat="42.92359" lon="-1.29089">
        <ele>699.72</ele>
        <time>2021-08-05T12:33:07Z</time>
      </trkpt>
      <trkpt lat="42.92367" lon="-1.29006">
        <ele>702.05</ele>
        <time>2021-08-05T12:33:11Z</time>
      </trkpt>
      <trkpt lat="42.92375" lon="-1.28987">
        <ele>702.81</ele>
        <time>2021-08-05T12:33:12Z</time>
      </trkpt>
      <trkpt lat="42.92436" lon="-1.28866">
        <ele>707.3</ele>
        <time>2021-08-05T12:33:18Z</time>
      </trkpt>
      <trkpt lat="42.92472" lon="-1.28777">
        <ele>710.76</ele>
        <time>2021-08-05T12:33:22Z</time>
      </trkpt>
      <trkpt lat="42.92555" lon="-1.28736">
        <ele>714.28</ele>
        <time>2021-08-05T12:33:27Z</time>
      </trkpt>
      <trkpt lat="42.92597" lon="-1.28742">
        <ele>715.55</ele>
        <time>2021-08-05T12:33:29Z</time>
      </trkpt>
      <trkpt lat="42.92705" lon="-1.28776">
        <ele>719.8</ele>
        <time>2021-08-05T12:33:34Z</time>
      </trkpt>
      <trkpt lat="42.92787" lon="-1.28811">
        <ele>723.31</ele>
        <time>2021-08-05T12:33:38Z</time>
      </trkpt>
      <trkpt lat="42.92824" lon="-1.28828">
        <ele>725.01</ele>
        <time>2021-08-05T12:33:40Z</time>
      </trkpt>
      <trkpt lat="42.92924" lon="-1.28823">
        <ele>729.18</ele>
        <time>2021-08-05T12:33:45Z</time>
      </trkpt>
      <trkpt lat="42.92981" lon="-1.28817">
        <ele>731.89</ele>
        <time>2021-08-05T12:33:48Z</time>
      </trkpt>
      <trkpt lat="42.93058" lon="-1.28863">
        <ele>736.32</ele>
        <time>2021-08-05T12:33:53Z</time>
      </trkpt>
      <trkpt lat="42.93076" lon="-1.28905">
        <ele>738.14</ele>
        <time>2021-08-05T12:33:55Z</time>
      </trkpt>
      <trkpt lat="42.93116" lon="-1.28988">
        <ele>741.91</ele>
        <time>2021-08-05T12:33:59Z</time>
      </trkpt>
      <trkpt lat="42.9313" lon="-1.29049">
        <ele>744.64</ele>
        <time>2021-08-05T12:34:02Z</time>
      </trkpt>
      <trkpt lat="42.93152" lon="-1.29069">
        <ele>747.66</ele>
        <time>2021-08-05T12:34:07Z</time>
      </trkpt>
      <trkpt lat="42.93163" lon="-1.29042">
        <ele>748.12</ele>
        <time>2021-08-05T12:34:08Z</time>
      </trkpt>
      <trkpt lat="42.93175" lon="-1.29005">
        <ele>749.01</ele>
        <time>2021-08-05T12:34:10Z</time>
      </trkpt>
      <trkpt lat="42.93195" lon="-1.28855">
        <ele>752.72</ele>
        <time>2021-08-05T12:34:16Z</time>
      </trkpt>
      <trkpt lat="42.93198" lon="-1.28828">
        <ele>753.54</ele>
        <time>2021-08-05T12:34:17Z</time>
      </trkpt>
      <trkpt lat="42.93192" lon="-1.28754">
        <ele>755.85</ele>
        <time>2021-08-05T12:34:20Z</time>
      </trkpt>
      <trkpt lat="42.93202" lon="-1.28669">
        <ele>759.18</ele>
        <time>2021-08-05T12:34:24Z</time>
      </trkpt>
      <trkpt lat="42.93293" lon="-1.28645">
        <ele>763.57</ele>
        <time>2021-08-05T12:34:29Z</time>
      </trkpt>
      <trkpt lat="42.93314" lon="-1.28652">
        <ele>763.57</ele>
        <time>2021-08-05T12:34:30Z</time>
      </trkpt>
      <trkpt lat="42.93334" lon="-1.28658">
        <ele>765.21</ele>
        <time>2021-08-05T12:34:31Z</time>
      </trkpt>
      <trkpt lat="42.93386" lon="-1.28679">
        <ele>766.91</ele>
        <time>2021-08-05T12:34:34Z</time>
      </trkpt>
      <trkpt lat="42.93402" lon="-1.28687">
        <ele>768.44</ele>
        <time>2021-08-05T12:34:35Z</time>
      </trkpt>
      <trkpt lat="42.93477" lon="-1.28757">
        <ele>771.92</ele>
        <time>2021-08-05T12:34:40Z</time>
      </trkpt>
      <trkpt lat="42.93539" lon="-1.28819">
        <ele>774.93</ele>
        <time>2021-08-05T12:34:44Z</time>
      </trkpt>
      <trkpt lat="42.93631" lon="-1.28845">
        <ele>779.56</ele>
        <time>2021-08-05T12:34:50Z</time>
      </trkpt>
      <trkpt lat="42.93694" lon="-1.28839">
        <ele>782.97</ele>
        <time>2021-08-05T12:34:55Z</time>
      </trkpt>
      <trkpt lat="42.93705" lon="-1.28826">
        <ele>783.5</ele>
        <time>2021-08-05T12:34:56Z</time>
      </trkpt>
      <trkpt lat="42.9373" lon="-1.288">
        <ele>784.77</ele>
        <time>2021-08-05T12:34:58Z</time>
      </trkpt>
      <trkpt lat="42.93745" lon="-1.28791">
        <ele>785.53</ele>
        <time>2021-08-05T12:34:59Z</time>
      </trkpt>
      <trkpt lat="42.93761" lon="-1.28787">
        <ele>786.34</ele>
        <time>2021-08-05T12:35:00Z</time>
      </trkpt>
      <trkpt lat="42.93776" lon="-1.28787">
        <ele>787.13</ele>
        <time>2021-08-05T12:35:01Z</time>
      </trkpt>
      <trkpt lat="42.93835" lon="-1.28721">
        <ele>791.6</ele>
        <time>2021-08-05T12:35:07Z</time>
      </trkpt>
      <trkpt lat="42.93873" lon="-1.28606">
        <ele>795.68</ele>
        <time>2021-08-05T12:35:12Z</time>
      </trkpt>
      <trkpt lat="42.93899" lon="-1.28503">
        <ele>799.36</ele>
        <time>2021-08-05T12:35:16Z</time>
      </trkpt>
      <trkpt lat="42.93913" lon="-1.28416">
        <ele>802.52</ele>
        <time>2021-08-05T12:35:19Z</time>
      </trkpt>
      <trkpt lat="42.9393" lon="-1.28326">
        <ele>805.65</ele>
        <time>2021-08-05T12:35:22Z</time>
      </trkpt>
      <trkpt lat="42.9394" lon="-1.28236">
        <ele>808.82</ele>
        <time>2021-08-05T12:35:25Z</time>
      </trkpt>
      <trkpt lat="42.93951" lon="-1.28129">
        <ele>812.67</ele>
        <time>2021-08-05T12:35:29Z</time>
      </trkpt>
      <trkpt lat="42.93978" lon="-1.28031">
        <ele>816.25</ele>
        <time>2021-08-05T12:35:33Z</time>
      </trkpt>
      <trkpt lat="42.94006" lon="-1.27966">
        <ele>819.85</ele>
        <time>2021-08-05T12:35:37Z</time>
      </trkpt>
      <trkpt lat="42.94063" lon="-1.27954">
        <ele>823.04</ele>
        <time>2021-08-05T12:35:43Z</time>
      </trkpt>
      <trkpt lat="42.94123" lon="-1.28034">
        <ele>824.52</ele>
        <time>2021-08-05T12:35:49Z</time>
      </trkpt>
      <trkpt lat="42.94126" lon="-1.28071">
        <ele>824.46</ele>
        <time>2021-08-05T12:35:51Z</time>
      </trkpt>
      <trkpt lat="42.94125" lon="-1.28112">
        <ele>823.86</ele>
        <time>2021-08-05T12:35:54Z</time>
      </trkpt>
      <trkpt lat="42.94134" lon="-1.28112">
        <ele>821.78</ele>
        <time>2021-08-05T12:36:00Z</time>
      </trkpt>
      <trkpt lat="42.94137" lon="-1.28023">
        <ele>820.56</ele>
        <time>2021-08-05T12:36:06Z</time>
      </trkpt>
      <trkpt lat="42.94138" lon="-1.28004">
        <ele>820.42</ele>
        <time>2021-08-05T12:36:07Z</time>
      </trkpt>
      <trkpt lat="42.94132" lon="-1.2795">
        <ele>819.82</ele>
        <time>2021-08-05T12:36:10Z</time>
      </trkpt>
      <trkpt lat="42.94141" lon="-1.27885">
        <ele>818.15</ele>
        <time>2021-08-05T12:36:14Z</time>
      </trkpt>
      <trkpt lat="42.94184" lon="-1.27836">
        <ele>814.32</ele>
        <time>2021-08-05T12:36:18Z</time>
      </trkpt>
      <trkpt lat="42.94221" lon="-1.27806">
        <ele>812.19</ele>
        <time>2021-08-05T12:36:21Z</time>
      </trkpt>
      <trkpt lat="42.94247" lon="-1.27755">
        <ele>809.63</ele>
        <time>2021-08-05T12:36:24Z</time>
      </trkpt>
      <trkpt lat="42.94259" lon="-1.2772">
        <ele>808.06</ele>
        <time>2021-08-05T12:36:26Z</time>
      </trkpt>
      <trkpt lat="42.94241" lon="-1.27636">
        <ele>803.9</ele>
        <time>2021-08-05T12:36:31Z</time>
      </trkpt>
      <trkpt lat="42.94231" lon="-1.27621">
        <ele>803.04</ele>
        <time>2021-08-05T12:36:32Z</time>
      </trkpt>
      <trkpt lat="42.94163" lon="-1.27538">
        <ele>798.39</ele>
        <time>2021-08-05T12:36:37Z</time>
      </trkpt>
      <trkpt lat="42.9414" lon="-1.27519">
        <ele>796.28</ele>
        <time>2021-08-05T12:36:39Z</time>
      </trkpt>
      <trkpt lat="42.94136" lon="-1.27486">
        <ele>791.58</ele>
        <time>2021-08-05T12:36:43Z</time>
      </trkpt>
      <trkpt lat="42.94177" lon="-1.27436">
        <ele>787.95</ele>
        <time>2021-08-05T12:36:47Z</time>
      </trkpt>
      <trkpt lat="42.9419" lon="-1.27425">
        <ele>787.17</ele>
        <time>2021-08-05T12:36:48Z</time>
      </trkpt>
      <trkpt lat="42.94256" lon="-1.27341">
        <ele>782.98</ele>
        <time>2021-08-05T12:36:54Z</time>
      </trkpt>
      <trkpt lat="42.94268" lon="-1.2723">
        <ele>778.88</ele>
        <time>2021-08-05T12:36:59Z</time>
      </trkpt>
      <trkpt lat="42.9427" lon="-1.27144">
        <ele>774.96</ele>
        <time>2021-08-05T12:37:03Z</time>
      </trkpt>
      <trkpt lat="42.94278" lon="-1.27101">
        <ele>772.82</ele>
        <time>2021-08-05T12:37:05Z</time>
      </trkpt>
      <trkpt lat="42.94279" lon="-1.27014">
        <ele>768.42</ele>
        <time>2021-08-05T12:37:09Z</time>
      </trkpt>
      <trkpt lat="42.94278" lon="-1.26973">
        <ele>766.29</ele>
        <time>2021-08-05T12:37:11Z</time>
      </trkpt>
      <trkpt lat="42.94303" lon="-1.26912">
        <ele>761.53</ele>
        <time>2021-08-05T12:37:15Z</time>
      </trkpt>
      <trkpt lat="42.94364" lon="-1.26896">
        <ele>757.22</ele>
        <time>2021-08-05T12:37:19Z</time>
      </trkpt>
      <trkpt lat="42.94419" lon="-1.26916">
        <ele>754.09</ele>
        <time>2021-08-05T12:37:22Z</time>
      </trkpt>
      <trkpt lat="42.9446" lon="-1.26915">
        <ele>750.73</ele>
        <time>2021-08-05T12:37:25Z</time>
      </trkpt>
      <trkpt lat="42.94495" lon="-1.26888">
        <ele>746.91</ele>
        <time>2021-08-05T12:37:28Z</time>
      </trkpt>
      <trkpt lat="42.94509" lon="-1.26882">
        <ele>745.75</ele>
        <time>2021-08-05T12:37:29Z</time>
      </trkpt>
      <trkpt lat="42.94581" lon="-1.26816">
        <ele>739.7</ele>
        <time>2021-08-05T12:37:35Z</time>
      </trkpt>
      <trkpt lat="42.94592" lon="-1.26728">
        <ele>736.07</ele>
        <time>2021-08-05T12:37:39Z</time>
      </trkpt>
      <trkpt lat="42.94582" lon="-1.26676">
        <ele>734.2</ele>
        <time>2021-08-05T12:37:41Z</time>
      </trkpt>
      <trkpt lat="42.94566" lon="-1.26579">
        <ele>729.7</ele>
        <time>2021-08-05T12:37:46Z</time>
      </trkpt>
      <trkpt lat="42.94564" lon="-1.26567">
        <ele>728.65</ele>
        <time>2021-08-05T12:37:47Z</time>
      </trkpt>
      <trkpt lat="42.94553" lon="-1.26546">
        <ele>725.25</ele>
        <time>2021-08-05T12:37:50Z</time>
      </trkpt>
      <trkpt lat="42.9455" lon="-1.26544">
        <ele>723.23</ele>
        <time>2021-08-05T12:37:52Z</time>
      </trkpt>
      <trkpt lat="42.94558" lon="-1.26535">
        <ele>719.2</ele>
        <time>2021-08-05T12:37:58Z</time>
      </trkpt>
      <trkpt lat="42.94557" lon="-1.26534">
        <ele>717.43</ele>
        <time>2021-08-05T12:38:24Z</time>
      </trkpt>
      <trkpt lat="42.94561" lon="-1.26537">
        <ele>718.3</ele>
        <time>2021-08-05T12:42:08Z</time>
      </trkpt>
      <trkpt lat="42.94579" lon="-1.26568">
        <ele>719.13</ele>
        <time>2021-08-05T12:42:35Z</time>
      </trkpt>
      <trkpt lat="42.94576" lon="-1.26571">
        <ele>719.12</ele>
        <time>2021-08-05T12:42:37Z</time>
      </trkpt>
      <trkpt lat="42.94574" lon="-1.26581">
        <ele>718.9</ele>
        <time>2021-08-05T12:43:04Z</time>
      </trkpt>
      <trkpt lat="42.94569" lon="-1.26575">
        <ele>719.5</ele>
        <time>2021-08-05T12:43:31Z</time>
      </trkpt>
      <trkpt lat="42.94568" lon="-1.2657">
        <ele>718.75</ele>
        <time>2021-08-05T12:43:57Z</time>
      </trkpt>
      <trkpt lat="42.94551" lon="-1.26557">
        <ele>718.12</ele>
        <time>2021-08-05T12:44:21Z</time>
      </trkpt>
      <trkpt lat="42.94553" lon="-1.26551">
        <ele>718.25</ele>
        <time>2021-08-05T12:44:32Z</time>
      </trkpt>
      <trkpt lat="42.94539" lon="-1.26547">
        <ele>719.05</ele>
        <time>2021-08-05T12:47:38Z</time>
      </trkpt>
      <trkpt lat="42.94558" lon="-1.26556">
        <ele>717.66</ele>
        <time>2021-08-05T12:47:44Z</time>
      </trkpt>
      <trkpt lat="42.94563" lon="-1.26553">
        <ele>717.02</ele>
        <time>2021-08-05T12:47:48Z</time>
      </trkpt>
      <trkpt lat="42.94527" lon="-1.26514">
        <ele>716.69</ele>
        <time>2021-08-05T12:47:52Z</time>
      </trkpt>
      <trkpt lat="42.94462" lon="-1.26425">
        <ele>715.33</ele>
        <time>2021-08-05T12:48:04Z</time>
      </trkpt>
      <trkpt lat="42.9445" lon="-1.26409">
        <ele>714.71</ele>
        <time>2021-08-05T12:48:12Z</time>
      </trkpt>
      <trkpt lat="42.94435" lon="-1.2638">
        <ele>714.75</ele>
        <time>2021-08-05T12:48:25Z</time>
      </trkpt>
      <trkpt lat="42.94411" lon="-1.26354">
        <ele>715.37</ele>
        <time>2021-08-05T12:48:34Z</time>
      </trkpt>
      <trkpt lat="42.94393" lon="-1.26331">
        <ele>715.89</ele>
        <time>2021-08-05T12:48:41Z</time>
      </trkpt>
      <trkpt lat="42.944" lon="-1.26345">
        <ele>716.35</ele>
        <time>2021-08-05T12:48:50Z</time>
      </trkpt>
      <trkpt lat="42.944" lon="-1.26345">
        <ele>716.78</ele>
        <time>2021-08-05T12:49:16Z</time>
      </trkpt>
      <trkpt lat="42.94403" lon="-1.26361">
        <ele>717.29</ele>
        <time>2021-08-05T12:58:20Z</time>
      </trkpt>
      <trkpt lat="42.944" lon="-1.26367">
        <ele>717.29</ele>
        <time>2021-08-05T12:58:21Z</time>
      </trkpt>
      <trkpt lat="42.94395" lon="-1.26361">
        <ele>716.69</ele>
        <time>2021-08-05T12:58:27Z</time>
      </trkpt>
      <trkpt lat="42.94423" lon="-1.26393">
        <ele>715.45</ele>
        <time>2021-08-05T12:58:36Z</time>
      </trkpt>
      <trkpt lat="42.94431" lon="-1.26387">
        <ele>715.14</ele>
        <time>2021-08-05T12:58:47Z</time>
      </trkpt>
      <trkpt lat="42.9443" lon="-1.26382">
        <ele>715.26</ele>
        <time>2021-08-05T12:58:49Z</time>
      </trkpt>
      <trkpt lat="42.94404" lon="-1.2634">
        <ele>716.52</ele>
        <time>2021-08-05T12:58:57Z</time>
      </trkpt>
      <trkpt lat="42.94402" lon="-1.26334">
        <ele>718.82</ele>
        <time>2021-08-05T12:59:06Z</time>
      </trkpt>
      <trkpt lat="42.94399" lon="-1.26327">
        <ele>719.48</ele>
        <time>2021-08-05T12:59:13Z</time>
      </trkpt>
      <trkpt lat="42.94347" lon="-1.2624">
        <ele>722.28</ele>
        <time>2021-08-05T12:59:23Z</time>
      </trkpt>
      <trkpt lat="42.94344" lon="-1.26229">
        <ele>722.75</ele>
        <time>2021-08-05T12:59:24Z</time>
      </trkpt>
      <trkpt lat="42.94339" lon="-1.26205">
        <ele>723.92</ele>
        <time>2021-08-05T12:59:26Z</time>
      </trkpt>
      <trkpt lat="42.94341" lon="-1.2619">
        <ele>724.51</ele>
        <time>2021-08-05T12:59:27Z</time>
      </trkpt>
      <trkpt lat="42.94364" lon="-1.26133">
        <ele>727.23</ele>
        <time>2021-08-05T12:59:31Z</time>
      </trkpt>
      <trkpt lat="42.94404" lon="-1.26041">
        <ele>729.45</ele>
        <time>2021-08-05T12:59:39Z</time>
      </trkpt>
      <trkpt lat="42.94405" lon="-1.2604">
        <ele>728.94</ele>
        <time>2021-08-05T12:59:53Z</time>
      </trkpt>
      <trkpt lat="42.94405" lon="-1.2604">
        <ele>728.95</ele>
        <time>2021-08-05T12:59:54Z</time>
      </trkpt>
      <trkpt lat="42.94414" lon="-1.26068">
        <ele>729.26</ele>
        <time>2021-08-05T13:00:01Z</time>
      </trkpt>
      <trkpt lat="42.94408" lon="-1.26076">
        <ele>729.44</ele>
        <time>2021-08-05T13:00:02Z</time>
      </trkpt>
      <trkpt lat="42.94364" lon="-1.26178">
        <ele>732.89</ele>
        <time>2021-08-05T13:00:11Z</time>
      </trkpt>
      <trkpt lat="42.94362" lon="-1.26188">
        <ele>733.5</ele>
        <time>2021-08-05T13:00:12Z</time>
      </trkpt>
      <trkpt lat="42.94387" lon="-1.2622">
        <ele>736.23</ele>
        <time>2021-08-05T13:00:17Z</time>
      </trkpt>
      <trkpt lat="42.94408" lon="-1.26219">
        <ele>737.38</ele>
        <time>2021-08-05T13:00:19Z</time>
      </trkpt>
      <trkpt lat="42.94473" lon="-1.26218">
        <ele>741.79</ele>
        <time>2021-08-05T13:00:25Z</time>
      </trkpt>
      <trkpt lat="42.94495" lon="-1.26218">
        <ele>743.49</ele>
        <time>2021-08-05T13:00:27Z</time>
      </trkpt>
      <trkpt lat="42.94529" lon="-1.2619">
        <ele>747.73</ele>
        <time>2021-08-05T13:00:32Z</time>
      </trkpt>
      <trkpt lat="42.94551" lon="-1.26182">
        <ele>751.71</ele>
        <time>2021-08-05T13:00:36Z</time>
      </trkpt>
      <trkpt lat="42.94559" lon="-1.26211">
        <ele>753.64</ele>
        <time>2021-08-05T13:00:39Z</time>
      </trkpt>
      <trkpt lat="42.94579" lon="-1.26266">
        <ele>756.83</ele>
        <time>2021-08-05T13:00:44Z</time>
      </trkpt>
      <trkpt lat="42.946" lon="-1.26265">
        <ele>760.17</ele>
        <time>2021-08-05T13:00:50Z</time>
      </trkpt>
      <trkpt lat="42.94584" lon="-1.26196">
        <ele>763.7</ele>
        <time>2021-08-05T13:00:56Z</time>
      </trkpt>
      <trkpt lat="42.94584" lon="-1.26182">
        <ele>764.38</ele>
        <time>2021-08-05T13:00:57Z</time>
      </trkpt>
      <trkpt lat="42.9458" lon="-1.26137">
        <ele>766.52</ele>
        <time>2021-08-05T13:01:00Z</time>
      </trkpt>
      <trkpt lat="42.94542" lon="-1.2609">
        <ele>769.58</ele>
        <time>2021-08-05T13:01:04Z</time>
      </trkpt>
      <trkpt lat="42.94521" lon="-1.26071">
        <ele>771.48</ele>
        <time>2021-08-05T13:01:06Z</time>
      </trkpt>
      <trkpt lat="42.945" lon="-1.26011">
        <ele>776.23</ele>
        <time>2021-08-05T13:01:11Z</time>
      </trkpt>
      <trkpt lat="42.94525" lon="-1.25978">
        <ele>779.92</ele>
        <time>2021-08-05T13:01:15Z</time>
      </trkpt>
      <trkpt lat="42.94565" lon="-1.26">
        <ele>783.36</ele>
        <time>2021-08-05T13:01:19Z</time>
      </trkpt>
      <trkpt lat="42.94587" lon="-1.26042">
        <ele>786.09</ele>
        <time>2021-08-05T13:01:22Z</time>
      </trkpt>
      <trkpt lat="42.94601" lon="-1.26074">
        <ele>787.97</ele>
        <time>2021-08-05T13:01:24Z</time>
      </trkpt>
      <trkpt lat="42.94616" lon="-1.26102">
        <ele>789.94</ele>
        <time>2021-08-05T13:01:26Z</time>
      </trkpt>
      <trkpt lat="42.94639" lon="-1.26167">
        <ele>794.09</ele>
        <time>2021-08-05T13:01:30Z</time>
      </trkpt>
      <trkpt lat="42.94654" lon="-1.26217">
        <ele>797.41</ele>
        <time>2021-08-05T13:01:33Z</time>
      </trkpt>
      <trkpt lat="42.94674" lon="-1.2626">
        <ele>800.53</ele>
        <time>2021-08-05T13:01:36Z</time>
      </trkpt>
      <trkpt lat="42.94723" lon="-1.26297">
        <ele>805.54</ele>
        <time>2021-08-05T13:01:41Z</time>
      </trkpt>
      <trkpt lat="42.94756" lon="-1.26309">
        <ele>808.81</ele>
        <time>2021-08-05T13:01:44Z</time>
      </trkpt>
      <trkpt lat="42.94782" lon="-1.26337">
        <ele>811.99</ele>
        <time>2021-08-05T13:01:47Z</time>
      </trkpt>
      <trkpt lat="42.94799" lon="-1.26356">
        <ele>813.93</ele>
        <time>2021-08-05T13:01:49Z</time>
      </trkpt>
      <trkpt lat="42.94853" lon="-1.26381">
        <ele>818.5</ele>
        <time>2021-08-05T13:01:54Z</time>
      </trkpt>
      <trkpt lat="42.94897" lon="-1.26407">
        <ele>821.65</ele>
        <time>2021-08-05T13:01:58Z</time>
      </trkpt>
      <trkpt lat="42.94964" lon="-1.2644">
        <ele>825.15</ele>
        <time>2021-08-05T13:02:03Z</time>
      </trkpt>
      <trkpt lat="42.95037" lon="-1.26473">
        <ele>828.56</ele>
        <time>2021-08-05T13:02:08Z</time>
      </trkpt>
      <trkpt lat="42.95113" lon="-1.26511">
        <ele>832.32</ele>
        <time>2021-08-05T13:02:13Z</time>
      </trkpt>
      <trkpt lat="42.9516" lon="-1.26538">
        <ele>836.07</ele>
        <time>2021-08-05T13:02:17Z</time>
      </trkpt>
      <trkpt lat="42.9519" lon="-1.2656">
        <ele>839.24</ele>
        <time>2021-08-05T13:02:21Z</time>
      </trkpt>
      <trkpt lat="42.95212" lon="-1.26583">
        <ele>842.19</ele>
        <time>2021-08-05T13:02:25Z</time>
      </trkpt>
      <trkpt lat="42.95232" lon="-1.26613">
        <ele>845.92</ele>
        <time>2021-08-05T13:02:33Z</time>
      </trkpt>
      <trkpt lat="42.95255" lon="-1.26625">
        <ele>847.89</ele>
        <time>2021-08-05T13:02:41Z</time>
      </trkpt>
      <trkpt lat="42.95264" lon="-1.2665">
        <ele>848.36</ele>
        <time>2021-08-05T13:02:45Z</time>
      </trkpt>
      <trkpt lat="42.9527" lon="-1.26667">
        <ele>848.33</ele>
        <time>2021-08-05T13:02:48Z</time>
      </trkpt>
      <trkpt lat="42.95264" lon="-1.26683">
        <ele>848.27</ele>
        <time>2021-08-05T13:02:52Z</time>
      </trkpt>
      <trkpt lat="42.95258" lon="-1.26693">
        <ele>848.51</ele>
        <time>2021-08-05T13:02:56Z</time>
      </trkpt>
      <trkpt lat="42.95279" lon="-1.26692">
        <ele>849.83</ele>
        <time>2021-08-05T13:03:03Z</time>
      </trkpt>
      <trkpt lat="42.95307" lon="-1.26665">
        <ele>851.85</ele>
        <time>2021-08-05T13:03:08Z</time>
      </trkpt>
      <trkpt lat="42.95301" lon="-1.26629">
        <ele>854.76</ele>
        <time>2021-08-05T13:03:14Z</time>
      </trkpt>
      <trkpt lat="42.95291" lon="-1.26611">
        <ele>855.99</ele>
        <time>2021-08-05T13:03:17Z</time>
      </trkpt>
      <trkpt lat="42.95292" lon="-1.26579">
        <ele>858.86</ele>
        <time>2021-08-05T13:03:24Z</time>
      </trkpt>
      <trkpt lat="42.95303" lon="-1.26591">
        <ele>861.12</ele>
        <time>2021-08-05T13:03:29Z</time>
      </trkpt>
      <trkpt lat="42.95309" lon="-1.26596">
        <ele>861.98</ele>
        <time>2021-08-05T13:03:31Z</time>
      </trkpt>
      <trkpt lat="42.95322" lon="-1.26605">
        <ele>863.29</ele>
        <time>2021-08-05T13:03:34Z</time>
      </trkpt>
      <trkpt lat="42.95331" lon="-1.2661">
        <ele>864.19</ele>
        <time>2021-08-05T13:03:36Z</time>
      </trkpt>
      <trkpt lat="42.95334" lon="-1.26614">
        <ele>864.68</ele>
        <time>2021-08-05T13:03:37Z</time>
      </trkpt>
      <trkpt lat="42.95337" lon="-1.26618">
        <ele>865.18</ele>
        <time>2021-08-05T13:03:38Z</time>
      </trkpt>
      <trkpt lat="42.95339" lon="-1.26622">
        <ele>865.67</ele>
        <time>2021-08-05T13:03:39Z</time>
      </trkpt>
      <trkpt lat="42.95341" lon="-1.26627">
        <ele>866.08</ele>
        <time>2021-08-05T13:03:40Z</time>
      </trkpt>
      <trkpt lat="42.95366" lon="-1.26657">
        <ele>868.17</ele>
        <time>2021-08-05T13:03:46Z</time>
      </trkpt>
      <trkpt lat="42.95391" lon="-1.26675">
        <ele>871.17</ele>
        <time>2021-08-05T13:03:55Z</time>
      </trkpt>
      <trkpt lat="42.95378" lon="-1.26693">
        <ele>872.5</ele>
        <time>2021-08-05T13:03:59Z</time>
      </trkpt>
      <trkpt lat="42.95368" lon="-1.26703">
        <ele>873.27</ele>
        <time>2021-08-05T13:04:01Z</time>
      </trkpt>
      <trkpt lat="42.9534" lon="-1.26739">
        <ele>876.96</ele>
        <time>2021-08-05T13:04:08Z</time>
      </trkpt>
      <trkpt lat="42.95335" lon="-1.26743">
        <ele>877.55</ele>
        <time>2021-08-05T13:04:09Z</time>
      </trkpt>
      <trkpt lat="42.95331" lon="-1.26785">
        <ele>881.55</ele>
        <time>2021-08-05T13:04:15Z</time>
      </trkpt>
      <trkpt lat="42.9535" lon="-1.26815">
        <ele>884.23</ele>
        <time>2021-08-05T13:04:19Z</time>
      </trkpt>
      <trkpt lat="42.95376" lon="-1.26843">
        <ele>887.67</ele>
        <time>2021-08-05T13:04:23Z</time>
      </trkpt>
      <trkpt lat="42.95382" lon="-1.26847">
        <ele>888.64</ele>
        <time>2021-08-05T13:04:24Z</time>
      </trkpt>
      <trkpt lat="42.95389" lon="-1.26848">
        <ele>889.63</ele>
        <time>2021-08-05T13:04:25Z</time>
      </trkpt>
      <trkpt lat="42.95395" lon="-1.26845">
        <ele>890.67</ele>
        <time>2021-08-05T13:04:26Z</time>
      </trkpt>
      <trkpt lat="42.95399" lon="-1.26837">
        <ele>891.69</ele>
        <time>2021-08-05T13:04:27Z</time>
      </trkpt>
      <trkpt lat="42.95402" lon="-1.26813">
        <ele>893.59</ele>
        <time>2021-08-05T13:04:29Z</time>
      </trkpt>
      <trkpt lat="42.95422" lon="-1.26779">
        <ele>898.92</ele>
        <time>2021-08-05T13:04:34Z</time>
      </trkpt>
      <trkpt lat="42.95461" lon="-1.26767">
        <ele>903.12</ele>
        <time>2021-08-05T13:04:38Z</time>
      </trkpt>
      <trkpt lat="42.95471" lon="-1.26765">
        <ele>904.1</ele>
        <time>2021-08-05T13:04:39Z</time>
      </trkpt>
      <trkpt lat="42.95507" lon="-1.26718">
        <ele>908.51</ele>
        <time>2021-08-05T13:04:44Z</time>
      </trkpt>
      <trkpt lat="42.9551" lon="-1.26677">
        <ele>911.44</ele>
        <time>2021-08-05T13:04:47Z</time>
      </trkpt>
      <trkpt lat="42.9551" lon="-1.26629">
        <ele>914.22</ele>
        <time>2021-08-05T13:04:50Z</time>
      </trkpt>
      <trkpt lat="42.95487" lon="-1.26568">
        <ele>918.28</ele>
        <time>2021-08-05T13:04:54Z</time>
      </trkpt>
      <trkpt lat="42.95472" lon="-1.26545">
        <ele>920.47</ele>
        <time>2021-08-05T13:04:56Z</time>
      </trkpt>
      <trkpt lat="42.95456" lon="-1.26518">
        <ele>923.57</ele>
        <time>2021-08-05T13:04:59Z</time>
      </trkpt>
      <trkpt lat="42.95477" lon="-1.26507">
        <ele>928.24</ele>
        <time>2021-08-05T13:05:04Z</time>
      </trkpt>
      <trkpt lat="42.95516" lon="-1.26544">
        <ele>931.76</ele>
        <time>2021-08-05T13:05:08Z</time>
      </trkpt>
      <trkpt lat="42.95541" lon="-1.26594">
        <ele>935.42</ele>
        <time>2021-08-05T13:05:12Z</time>
      </trkpt>
      <trkpt lat="42.95546" lon="-1.26624">
        <ele>937.6</ele>
        <time>2021-08-05T13:05:14Z</time>
      </trkpt>
      <trkpt lat="42.95559" lon="-1.2669">
        <ele>941.84</ele>
        <time>2021-08-05T13:05:18Z</time>
      </trkpt>
      <trkpt lat="42.95577" lon="-1.26739">
        <ele>945.29</ele>
        <time>2021-08-05T13:05:21Z</time>
      </trkpt>
      <trkpt lat="42.95592" lon="-1.26791">
        <ele>948.83</ele>
        <time>2021-08-05T13:05:24Z</time>
      </trkpt>
      <trkpt lat="42.95596" lon="-1.26824">
        <ele>951.3</ele>
        <time>2021-08-05T13:05:26Z</time>
      </trkpt>
      <trkpt lat="42.95589" lon="-1.26885">
        <ele>955.93</ele>
        <time>2021-08-05T13:05:30Z</time>
      </trkpt>
      <trkpt lat="42.95614" lon="-1.26941">
        <ele>960.02</ele>
        <time>2021-08-05T13:05:34Z</time>
      </trkpt>
      <trkpt lat="42.95633" lon="-1.26967">
        <ele>963.62</ele>
        <time>2021-08-05T13:05:36Z</time>
      </trkpt>
      <trkpt lat="42.95673" lon="-1.2702">
        <ele>968.79</ele>
        <time>2021-08-05T13:05:40Z</time>
      </trkpt>
      <trkpt lat="42.95709" lon="-1.27052">
        <ele>972.65</ele>
        <time>2021-08-05T13:05:43Z</time>
      </trkpt>
      <trkpt lat="42.95743" lon="-1.27083">
        <ele>976.46</ele>
        <time>2021-08-05T13:05:46Z</time>
      </trkpt>
      <trkpt lat="42.95779" lon="-1.27116">
        <ele>980.26</ele>
        <time>2021-08-05T13:05:49Z</time>
      </trkpt>
      <trkpt lat="42.95813" lon="-1.2715">
        <ele>983.93</ele>
        <time>2021-08-05T13:05:52Z</time>
      </trkpt>
      <trkpt lat="42.95843" lon="-1.27184">
        <ele>987.88</ele>
        <time>2021-08-05T13:05:55Z</time>
      </trkpt>
      <trkpt lat="42.95871" lon="-1.27225">
        <ele>991.88</ele>
        <time>2021-08-05T13:05:58Z</time>
      </trkpt>
      <trkpt lat="42.95891" lon="-1.27259">
        <ele>995.84</ele>
        <time>2021-08-05T13:06:01Z</time>
      </trkpt>
      <trkpt lat="42.95903" lon="-1.27281">
        <ele>998.32</ele>
        <time>2021-08-05T13:06:03Z</time>
      </trkpt>
      <trkpt lat="42.95939" lon="-1.27315">
        <ele>1002.59</ele>
        <time>2021-08-05T13:06:07Z</time>
      </trkpt>
      <trkpt lat="42.95978" lon="-1.27323">
        <ele>1005.76</ele>
        <time>2021-08-05T13:06:11Z</time>
      </trkpt>
      <trkpt lat="42.95989" lon="-1.27321">
        <ele>1006.47</ele>
        <time>2021-08-05T13:06:12Z</time>
      </trkpt>
      <trkpt lat="42.96044" lon="-1.27307">
        <ele>1008.23</ele>
        <time>2021-08-05T13:06:17Z</time>
      </trkpt>
      <trkpt lat="42.96085" lon="-1.27274">
        <ele>1007.89</ele>
        <time>2021-08-05T13:06:22Z</time>
      </trkpt>
      <trkpt lat="42.9612" lon="-1.27253">
        <ele>1006.6</ele>
        <time>2021-08-05T13:06:27Z</time>
      </trkpt>
      <trkpt lat="42.96157" lon="-1.27242">
        <ele>1004.82</ele>
        <time>2021-08-05T13:06:31Z</time>
      </trkpt>
      <trkpt lat="42.96181" lon="-1.27224">
        <ele>1003.36</ele>
        <time>2021-08-05T13:06:34Z</time>
      </trkpt>
      <trkpt lat="42.96206" lon="-1.27215">
        <ele>1001.85</ele>
        <time>2021-08-05T13:06:37Z</time>
      </trkpt>
      <trkpt lat="42.96235" lon="-1.27191">
        <ele>999.77</ele>
        <time>2021-08-05T13:06:41Z</time>
      </trkpt>
      <trkpt lat="42.96289" lon="-1.27206">
        <ele>996.08</ele>
        <time>2021-08-05T13:06:48Z</time>
      </trkpt>
      <trkpt lat="42.96306" lon="-1.27229">
        <ele>995.19</ele>
        <time>2021-08-05T13:06:50Z</time>
      </trkpt>
      <trkpt lat="42.96343" lon="-1.27296">
        <ele>992.58</ele>
        <time>2021-08-05T13:06:55Z</time>
      </trkpt>
      <trkpt lat="42.96397" lon="-1.27302">
        <ele>988.8</ele>
        <time>2021-08-05T13:07:01Z</time>
      </trkpt>
      <trkpt lat="42.96418" lon="-1.27241">
        <ele>985.82</ele>
        <time>2021-08-05T13:07:06Z</time>
      </trkpt>
      <trkpt lat="42.96444" lon="-1.27186">
        <ele>982.64</ele>
        <time>2021-08-05T13:07:11Z</time>
      </trkpt>
      <trkpt lat="42.96482" lon="-1.2708">
        <ele>978.3</ele>
        <time>2021-08-05T13:07:19Z</time>
      </trkpt>
      <trkpt lat="42.96483" lon="-1.27058">
        <ele>977.69</ele>
        <time>2021-08-05T13:07:21Z</time>
      </trkpt>
      <trkpt lat="42.96513" lon="-1.27005">
        <ele>977.08</ele>
        <time>2021-08-05T13:07:27Z</time>
      </trkpt>
      <trkpt lat="42.96621" lon="-1.26899">
        <ele>973.63</ele>
        <time>2021-08-05T13:07:38Z</time>
      </trkpt>
      <trkpt lat="42.96628" lon="-1.26891">
        <ele>973.17</ele>
        <time>2021-08-05T13:07:39Z</time>
      </trkpt>
      <trkpt lat="42.96651" lon="-1.26909">
        <ele>971.02</ele>
        <time>2021-08-05T13:07:44Z</time>
      </trkpt>
      <trkpt lat="42.96653" lon="-1.26937">
        <ele>970.32</ele>
        <time>2021-08-05T13:07:46Z</time>
      </trkpt>
      <trkpt lat="42.96661" lon="-1.27044">
        <ele>966.37</ele>
        <time>2021-08-05T13:07:53Z</time>
      </trkpt>
      <trkpt lat="42.96663" lon="-1.27071">
        <ele>964.96</ele>
        <time>2021-08-05T13:07:55Z</time>
      </trkpt>
      <trkpt lat="42.96698" lon="-1.271">
        <ele>960.44</ele>
        <time>2021-08-05T13:08:00Z</time>
      </trkpt>
      <trkpt lat="42.96738" lon="-1.27078">
        <ele>957.25</ele>
        <time>2021-08-05T13:08:04Z</time>
      </trkpt>
      <trkpt lat="42.9676" lon="-1.27049">
        <ele>954.75</ele>
        <time>2021-08-05T13:08:07Z</time>
      </trkpt>
      <trkpt lat="42.96798" lon="-1.27029">
        <ele>948.97</ele>
        <time>2021-08-05T13:08:13Z</time>
      </trkpt>
      <trkpt lat="42.96822" lon="-1.27059">
        <ele>946.6</ele>
        <time>2021-08-05T13:08:16Z</time>
      </trkpt>
      <trkpt lat="42.96856" lon="-1.27128">
        <ele>942.61</ele>
        <time>2021-08-05T13:08:21Z</time>
      </trkpt>
      <trkpt lat="42.96862" lon="-1.27144">
        <ele>941.77</ele>
        <time>2021-08-05T13:08:22Z</time>
      </trkpt>
      <trkpt lat="42.96881" lon="-1.27222">
        <ele>936.96</ele>
        <time>2021-08-05T13:08:27Z</time>
      </trkpt>
      <trkpt lat="42.96867" lon="-1.27251">
        <ele>932.33</ele>
        <time>2021-08-05T13:08:31Z</time>
      </trkpt>
      <trkpt lat="42.96832" lon="-1.27254">
        <ele>928.48</ele>
        <time>2021-08-05T13:08:35Z</time>
      </trkpt>
      <trkpt lat="42.96825" lon="-1.27276">
        <ele>926.65</ele>
        <time>2021-08-05T13:08:37Z</time>
      </trkpt>
      <trkpt lat="42.96805" lon="-1.27348">
        <ele>922.6</ele>
        <time>2021-08-05T13:08:42Z</time>
      </trkpt>
      <trkpt lat="42.96798" lon="-1.27411">
        <ele>918.91</ele>
        <time>2021-08-05T13:08:46Z</time>
      </trkpt>
      <trkpt lat="42.96782" lon="-1.27464">
        <ele>914.8</ele>
        <time>2021-08-05T13:08:50Z</time>
      </trkpt>
      <trkpt lat="42.96765" lon="-1.27487">
        <ele>912.62</ele>
        <time>2021-08-05T13:08:52Z</time>
      </trkpt>
      <trkpt lat="42.9673" lon="-1.2752">
        <ele>907.02</ele>
        <time>2021-08-05T13:08:56Z</time>
      </trkpt>
      <trkpt lat="42.96721" lon="-1.2753">
        <ele>904.61</ele>
        <time>2021-08-05T13:08:58Z</time>
      </trkpt>
      <trkpt lat="42.96732" lon="-1.27546">
        <ele>900.02</ele>
        <time>2021-08-05T13:09:03Z</time>
      </trkpt>
      <trkpt lat="42.96738" lon="-1.27544">
        <ele>899.32</ele>
        <time>2021-08-05T13:09:04Z</time>
      </trkpt>
      <trkpt lat="42.96782" lon="-1.27534">
        <ele>897.17</ele>
        <time>2021-08-05T13:09:08Z</time>
      </trkpt>
      <trkpt lat="42.96857" lon="-1.27537">
        <ele>894.1</ele>
        <time>2021-08-05T13:09:13Z</time>
      </trkpt>
      <trkpt lat="42.96929" lon="-1.27512">
        <ele>889.79</ele>
        <time>2021-08-05T13:09:18Z</time>
      </trkpt>
      <trkpt lat="42.96964" lon="-1.27499">
        <ele>886.41</ele>
        <time>2021-08-05T13:09:21Z</time>
      </trkpt>
      <trkpt lat="42.96974" lon="-1.27497">
        <ele>885.18</ele>
        <time>2021-08-05T13:09:22Z</time>
      </trkpt>
      <trkpt lat="42.97019" lon="-1.27497">
        <ele>880.15</ele>
        <time>2021-08-05T13:09:26Z</time>
      </trkpt>
      <trkpt lat="42.97056" lon="-1.27493">
        <ele>876.65</ele>
        <time>2021-08-05T13:09:29Z</time>
      </trkpt>
      <trkpt lat="42.97089" lon="-1.27492">
        <ele>873.4</ele>
        <time>2021-08-05T13:09:32Z</time>
      </trkpt>
      <trkpt lat="42.97127" lon="-1.2753">
        <ele>869.19</ele>
        <time>2021-08-05T13:09:36Z</time>
      </trkpt>
      <trkpt lat="42.97135" lon="-1.27546">
        <ele>868.14</ele>
        <time>2021-08-05T13:09:37Z</time>
      </trkpt>
      <trkpt lat="42.97171" lon="-1.2761">
        <ele>863.75</ele>
        <time>2021-08-05T13:09:41Z</time>
      </trkpt>
      <trkpt lat="42.97193" lon="-1.27663">
        <ele>860.21</ele>
        <time>2021-08-05T13:09:44Z</time>
      </trkpt>
      <trkpt lat="42.97214" lon="-1.27713">
        <ele>856.52</ele>
        <time>2021-08-05T13:09:47Z</time>
      </trkpt>
      <trkpt lat="42.97221" lon="-1.27729">
        <ele>855.17</ele>
        <time>2021-08-05T13:09:48Z</time>
      </trkpt>
      <trkpt lat="42.97235" lon="-1.27783">
        <ele>850.99</ele>
        <time>2021-08-05T13:09:51Z</time>
      </trkpt>
      <trkpt lat="42.97242" lon="-1.27829">
        <ele>846.37</ele>
        <time>2021-08-05T13:09:54Z</time>
      </trkpt>
      <trkpt lat="42.97229" lon="-1.27878">
        <ele>840.44</ele>
        <time>2021-08-05T13:09:58Z</time>
      </trkpt>
      <trkpt lat="42.97214" lon="-1.27886">
        <ele>837.87</ele>
        <time>2021-08-05T13:10:00Z</time>
      </trkpt>
      <trkpt lat="42.97196" lon="-1.27886">
        <ele>832.03</ele>
        <time>2021-08-05T13:10:05Z</time>
      </trkpt>
      <trkpt lat="42.97193" lon="-1.27884">
        <ele>828.4</ele>
        <time>2021-08-05T13:10:09Z</time>
      </trkpt>
      <trkpt lat="42.97191" lon="-1.27887">
        <ele>825.27</ele>
        <time>2021-08-05T13:10:15Z</time>
      </trkpt>
      <trkpt lat="42.97191" lon="-1.27887">
        <ele>822.26</ele>
        <time>2021-08-05T13:10:33Z</time>
      </trkpt>
      <trkpt lat="42.97202" lon="-1.27894">
        <ele>821.51</ele>
        <time>2021-08-05T13:10:50Z</time>
      </trkpt>
      <trkpt lat="42.97236" lon="-1.27912">
        <ele>820.31</ele>
        <time>2021-08-05T13:11:05Z</time>
      </trkpt>
      <trkpt lat="42.97242" lon="-1.27915">
        <ele>819.44</ele>
        <time>2021-08-05T13:11:15Z</time>
      </trkpt>
      <trkpt lat="42.97252" lon="-1.27909">
        <ele>818.2</ele>
        <time>2021-08-05T13:11:29Z</time>
      </trkpt>
      <trkpt lat="42.97256" lon="-1.27907">
        <ele>817.57</ele>
        <time>2021-08-05T13:11:42Z</time>
      </trkpt>
      <trkpt lat="42.97265" lon="-1.27905">
        <ele>816.81</ele>
        <time>2021-08-05T13:12:03Z</time>
      </trkpt>
      <trkpt lat="42.9727" lon="-1.27902">
        <ele>815.9</ele>
        <time>2021-08-05T13:12:32Z</time>
      </trkpt>
      <trkpt lat="42.97261" lon="-1.27921">
        <ele>815.18</ele>
        <time>2021-08-05T13:13:03Z</time>
      </trkpt>
      <trkpt lat="42.97263" lon="-1.27926">
        <ele>815.77</ele>
        <time>2021-08-05T13:13:27Z</time>
      </trkpt>
      <trkpt lat="42.97269" lon="-1.27928">
        <ele>816.26</ele>
        <time>2021-08-05T13:13:46Z</time>
      </trkpt>
      <trkpt lat="42.97276" lon="-1.27929">
        <ele>817.79</ele>
        <time>2021-08-05T13:14:48Z</time>
      </trkpt>
      <trkpt lat="42.97268" lon="-1.27916">
        <ele>817.79</ele>
        <time>2021-08-05T13:14:49Z</time>
      </trkpt>
      <trkpt lat="42.97255" lon="-1.27931">
        <ele>817.79</ele>
        <time>2021-08-05T13:15:13Z</time>
      </trkpt>
      <trkpt lat="42.97255" lon="-1.27933">
        <ele>817.79</ele>
        <time>2021-08-05T13:15:41Z</time>
      </trkpt>
      <trkpt lat="42.97274" lon="-1.27908">
        <ele>818.75</ele>
        <time>2021-08-05T14:00:20Z</time>
      </trkpt>
      <trkpt lat="42.97271" lon="-1.27912">
        <ele>818.75</ele>
        <time>2021-08-05T14:00:31Z</time>
      </trkpt>
      <trkpt lat="42.97276" lon="-1.27897">
        <ele>817.1</ele>
        <time>2021-08-05T14:00:38Z</time>
      </trkpt>
      <trkpt lat="42.97308" lon="-1.27865">
        <ele>815.87</ele>
        <time>2021-08-05T14:00:49Z</time>
      </trkpt>
      <trkpt lat="42.97328" lon="-1.27849">
        <ele>812.87</ele>
        <time>2021-08-05T14:01:04Z</time>
      </trkpt>
      <trkpt lat="42.97334" lon="-1.27839">
        <ele>811.83</ele>
        <time>2021-08-05T14:01:19Z</time>
      </trkpt>
      <trkpt lat="42.97349" lon="-1.27827">
        <ele>811.08</ele>
        <time>2021-08-05T14:01:41Z</time>
      </trkpt>
      <trkpt lat="42.97356" lon="-1.27817">
        <ele>811.69</ele>
        <time>2021-08-05T14:02:25Z</time>
      </trkpt>
      <trkpt lat="42.97367" lon="-1.27803">
        <ele>810.7</ele>
        <time>2021-08-05T14:02:40Z</time>
      </trkpt>
      <trkpt lat="42.97378" lon="-1.2779">
        <ele>810.1</ele>
        <time>2021-08-05T14:03:02Z</time>
      </trkpt>
      <trkpt lat="42.9738" lon="-1.27779">
        <ele>809.96</ele>
        <time>2021-08-05T14:03:31Z</time>
      </trkpt>
      <trkpt lat="42.97381" lon="-1.27775">
        <ele>810</ele>
        <time>2021-08-05T14:03:34Z</time>
      </trkpt>
      <trkpt lat="42.97389" lon="-1.27742">
        <ele>810.49</ele>
        <time>2021-08-05T14:03:44Z</time>
      </trkpt>
      <trkpt lat="42.97404" lon="-1.27726">
        <ele>811.08</ele>
        <time>2021-08-05T14:03:48Z</time>
      </trkpt>
      <trkpt lat="42.97419" lon="-1.27715">
        <ele>811.98</ele>
        <time>2021-08-05T14:03:51Z</time>
      </trkpt>
      <trkpt lat="42.97494" lon="-1.27702">
        <ele>814.63</ele>
        <time>2021-08-05T14:04:01Z</time>
      </trkpt>
      <trkpt lat="42.97551" lon="-1.27691">
        <ele>815.46</ele>
        <time>2021-08-05T14:04:12Z</time>
      </trkpt>
      <trkpt lat="42.97594" lon="-1.2768">
        <ele>818.05</ele>
        <time>2021-08-05T14:04:25Z</time>
      </trkpt>
      <trkpt lat="42.97598" lon="-1.27681">
        <ele>820.26</ele>
        <time>2021-08-05T14:04:39Z</time>
      </trkpt>
      <trkpt lat="42.97604" lon="-1.27682">
        <ele>820.87</ele>
        <time>2021-08-05T14:04:53Z</time>
      </trkpt>
      <trkpt lat="42.97619" lon="-1.27686">
        <ele>821.02</ele>
        <time>2021-08-05T14:04:56Z</time>
      </trkpt>
      <trkpt lat="42.97635" lon="-1.27687">
        <ele>821.23</ele>
        <time>2021-08-05T14:04:58Z</time>
      </trkpt>
      <trkpt lat="42.97674" lon="-1.27693">
        <ele>821.7</ele>
        <time>2021-08-05T14:05:02Z</time>
      </trkpt>
      <trkpt lat="42.97702" lon="-1.27709">
        <ele>822.08</ele>
        <time>2021-08-05T14:05:05Z</time>
      </trkpt>
      <trkpt lat="42.97748" lon="-1.27734">
        <ele>822.87</ele>
        <time>2021-08-05T14:05:11Z</time>
      </trkpt>
      <trkpt lat="42.97761" lon="-1.27758">
        <ele>823.22</ele>
        <time>2021-08-05T14:05:13Z</time>
      </trkpt>
      <trkpt lat="42.97826" lon="-1.27837">
        <ele>824.83</ele>
        <time>2021-08-05T14:05:20Z</time>
      </trkpt>
      <trkpt lat="42.97866" lon="-1.27838">
        <ele>825.85</ele>
        <time>2021-08-05T14:05:24Z</time>
      </trkpt>
      <trkpt lat="42.9796" lon="-1.27832">
        <ele>827.62</ele>
        <time>2021-08-05T14:05:34Z</time>
      </trkpt>
      <trkpt lat="42.98006" lon="-1.27855">
        <ele>828.5</ele>
        <time>2021-08-05T14:05:38Z</time>
      </trkpt>
      <trkpt lat="42.98027" lon="-1.27873">
        <ele>828.99</ele>
        <time>2021-08-05T14:05:40Z</time>
      </trkpt>
      <trkpt lat="42.98055" lon="-1.27927">
        <ele>829.81</ele>
        <time>2021-08-05T14:05:44Z</time>
      </trkpt>
      <trkpt lat="42.98114" lon="-1.27985">
        <ele>831.24</ele>
        <time>2021-08-05T14:05:50Z</time>
      </trkpt>
      <trkpt lat="42.98121" lon="-1.27998">
        <ele>831.58</ele>
        <time>2021-08-05T14:05:51Z</time>
      </trkpt>
      <trkpt lat="42.98142" lon="-1.28042">
        <ele>832.5</ele>
        <time>2021-08-05T14:05:54Z</time>
      </trkpt>
      <trkpt lat="42.98174" lon="-1.28145">
        <ele>834.95</ele>
        <time>2021-08-05T14:06:02Z</time>
      </trkpt>
      <trkpt lat="42.98206" lon="-1.28191">
        <ele>838.3</ele>
        <time>2021-08-05T14:06:09Z</time>
      </trkpt>
      <trkpt lat="42.98221" lon="-1.2822">
        <ele>841.9</ele>
        <time>2021-08-05T14:06:16Z</time>
      </trkpt>
      <trkpt lat="42.98222" lon="-1.28225">
        <ele>843.4</ele>
        <time>2021-08-05T14:06:22Z</time>
      </trkpt>
      <trkpt lat="42.98226" lon="-1.28192">
        <ele>844.46</ele>
        <time>2021-08-05T14:06:29Z</time>
      </trkpt>
      <trkpt lat="42.98214" lon="-1.28157">
        <ele>845.99</ele>
        <time>2021-08-05T14:06:33Z</time>
      </trkpt>
      <trkpt lat="42.9821" lon="-1.28129">
        <ele>847.04</ele>
        <time>2021-08-05T14:06:36Z</time>
      </trkpt>
      <trkpt lat="42.9823" lon="-1.28115">
        <ele>851</ele>
        <time>2021-08-05T14:06:43Z</time>
      </trkpt>
      <trkpt lat="42.98263" lon="-1.28124">
        <ele>853.45</ele>
        <time>2021-08-05T14:06:48Z</time>
      </trkpt>
      <trkpt lat="42.98327" lon="-1.28114">
        <ele>857</ele>
        <time>2021-08-05T14:06:54Z</time>
      </trkpt>
      <trkpt lat="42.98362" lon="-1.28102">
        <ele>859.3</ele>
        <time>2021-08-05T14:06:57Z</time>
      </trkpt>
      <trkpt lat="42.98409" lon="-1.28059">
        <ele>863.5</ele>
        <time>2021-08-05T14:07:01Z</time>
      </trkpt>
      <trkpt lat="42.98476" lon="-1.28003">
        <ele>869.36</ele>
        <time>2021-08-05T14:07:07Z</time>
      </trkpt>
      <trkpt lat="42.98511" lon="-1.27961">
        <ele>873.88</ele>
        <time>2021-08-05T14:07:11Z</time>
      </trkpt>
      <trkpt lat="42.98536" lon="-1.27927">
        <ele>877.13</ele>
        <time>2021-08-05T14:07:14Z</time>
      </trkpt>
      <trkpt lat="42.98557" lon="-1.27907">
        <ele>879.13</ele>
        <time>2021-08-05T14:07:16Z</time>
      </trkpt>
      <trkpt lat="42.98585" lon="-1.27875">
        <ele>881.79</ele>
        <time>2021-08-05T14:07:19Z</time>
      </trkpt>
      <trkpt lat="42.98606" lon="-1.27821">
        <ele>884.99</ele>
        <time>2021-08-05T14:07:23Z</time>
      </trkpt>
      <trkpt lat="42.98609" lon="-1.27798">
        <ele>886.59</ele>
        <time>2021-08-05T14:07:25Z</time>
      </trkpt>
      <trkpt lat="42.9862" lon="-1.27787">
        <ele>890.82</ele>
        <time>2021-08-05T14:07:30Z</time>
      </trkpt>
      <trkpt lat="42.98621" lon="-1.27806">
        <ele>893.62</ele>
        <time>2021-08-05T14:07:34Z</time>
      </trkpt>
      <trkpt lat="42.98621" lon="-1.27864">
        <ele>897.8</ele>
        <time>2021-08-05T14:07:40Z</time>
      </trkpt>
      <trkpt lat="42.98607" lon="-1.27901">
        <ele>900.68</ele>
        <time>2021-08-05T14:07:44Z</time>
      </trkpt>
      <trkpt lat="42.98607" lon="-1.27985">
        <ele>904.75</ele>
        <time>2021-08-05T14:07:50Z</time>
      </trkpt>
      <trkpt lat="42.98625" lon="-1.28054">
        <ele>907.48</ele>
        <time>2021-08-05T14:07:54Z</time>
      </trkpt>
      <trkpt lat="42.9863" lon="-1.28088">
        <ele>908.91</ele>
        <time>2021-08-05T14:07:56Z</time>
      </trkpt>
      <trkpt lat="42.98657" lon="-1.28165">
        <ele>911.5</ele>
        <time>2021-08-05T14:08:01Z</time>
      </trkpt>
      <trkpt lat="42.9868" lon="-1.28234">
        <ele>912.72</ele>
        <time>2021-08-05T14:08:05Z</time>
      </trkpt>
      <trkpt lat="42.98703" lon="-1.28278">
        <ele>912.29</ele>
        <time>2021-08-05T14:08:09Z</time>
      </trkpt>
      <trkpt lat="42.9875" lon="-1.28329">
        <ele>910.28</ele>
        <time>2021-08-05T14:08:16Z</time>
      </trkpt>
      <trkpt lat="42.98801" lon="-1.28335">
        <ele>910.28</ele>
        <time>2021-08-05T14:08:22Z</time>
      </trkpt>
      <trkpt lat="42.9886" lon="-1.28328">
        <ele>912.18</ele>
        <time>2021-08-05T14:08:29Z</time>
      </trkpt>
      <trkpt lat="42.98882" lon="-1.2833">
        <ele>914.55</ele>
        <time>2021-08-05T14:08:35Z</time>
      </trkpt>
      <trkpt lat="42.98873" lon="-1.28303">
        <ele>918.04</ele>
        <time>2021-08-05T14:08:41Z</time>
      </trkpt>
      <trkpt lat="42.98845" lon="-1.2829">
        <ele>922.42</ele>
        <time>2021-08-05T14:08:48Z</time>
      </trkpt>
      <trkpt lat="42.98835" lon="-1.28286">
        <ele>924.29</ele>
        <time>2021-08-05T14:08:51Z</time>
      </trkpt>
      <trkpt lat="42.9885" lon="-1.28263">
        <ele>927.95</ele>
        <time>2021-08-05T14:08:57Z</time>
      </trkpt>
      <trkpt lat="42.98863" lon="-1.28257">
        <ele>929.07</ele>
        <time>2021-08-05T14:08:59Z</time>
      </trkpt>
      <trkpt lat="42.98904" lon="-1.28215">
        <ele>933.36</ele>
        <time>2021-08-05T14:09:06Z</time>
      </trkpt>
      <trkpt lat="42.98922" lon="-1.28183">
        <ele>936.25</ele>
        <time>2021-08-05T14:09:10Z</time>
      </trkpt>
      <trkpt lat="42.98954" lon="-1.28131">
        <ele>940.43</ele>
        <time>2021-08-05T14:09:16Z</time>
      </trkpt>
      <trkpt lat="42.98989" lon="-1.28104">
        <ele>944.24</ele>
        <time>2021-08-05T14:09:21Z</time>
      </trkpt>
      <trkpt lat="42.99025" lon="-1.28076">
        <ele>948.32</ele>
        <time>2021-08-05T14:09:27Z</time>
      </trkpt>
      <trkpt lat="42.99055" lon="-1.28025">
        <ele>952.13</ele>
        <time>2021-08-05T14:09:33Z</time>
      </trkpt>
      <trkpt lat="42.99064" lon="-1.28007">
        <ele>953.55</ele>
        <time>2021-08-05T14:09:35Z</time>
      </trkpt>
      <trkpt lat="42.99088" lon="-1.27987">
        <ele>956.18</ele>
        <time>2021-08-05T14:09:39Z</time>
      </trkpt>
      <trkpt lat="42.99102" lon="-1.27981">
        <ele>957.37</ele>
        <time>2021-08-05T14:09:41Z</time>
      </trkpt>
      <trkpt lat="42.99143" lon="-1.27944">
        <ele>960.87</ele>
        <time>2021-08-05T14:09:47Z</time>
      </trkpt>
      <trkpt lat="42.99171" lon="-1.2789">
        <ele>964.4</ele>
        <time>2021-08-05T14:09:53Z</time>
      </trkpt>
      <trkpt lat="42.99221" lon="-1.27821">
        <ele>968.2</ele>
        <time>2021-08-05T14:10:01Z</time>
      </trkpt>
      <trkpt lat="42.99266" lon="-1.27751">
        <ele>971.77</ele>
        <time>2021-08-05T14:10:08Z</time>
      </trkpt>
      <trkpt lat="42.993" lon="-1.27681">
        <ele>975.12</ele>
        <time>2021-08-05T14:10:14Z</time>
      </trkpt>
      <trkpt lat="42.99329" lon="-1.27625">
        <ele>978.43</ele>
        <time>2021-08-05T14:10:20Z</time>
      </trkpt>
      <trkpt lat="42.99344" lon="-1.27606">
        <ele>980</ele>
        <time>2021-08-05T14:10:27Z</time>
      </trkpt>
      <trkpt lat="42.99371" lon="-1.27564">
        <ele>980.47</ele>
        <time>2021-08-05T14:10:39Z</time>
      </trkpt>
      <trkpt lat="42.99397" lon="-1.27525">
        <ele>981.11</ele>
        <time>2021-08-05T14:10:48Z</time>
      </trkpt>
      <trkpt lat="42.99417" lon="-1.27521">
        <ele>982.98</ele>
        <time>2021-08-05T14:10:57Z</time>
      </trkpt>
      <trkpt lat="42.99452" lon="-1.27523">
        <ele>985.68</ele>
        <time>2021-08-05T14:11:09Z</time>
      </trkpt>
      <trkpt lat="42.99457" lon="-1.27523">
        <ele>985.91</ele>
        <time>2021-08-05T14:11:10Z</time>
      </trkpt>
      <trkpt lat="42.99465" lon="-1.27543">
        <ele>988.56</ele>
        <time>2021-08-05T14:11:17Z</time>
      </trkpt>
      <trkpt lat="42.99455" lon="-1.27558">
        <ele>989.81</ele>
        <time>2021-08-05T14:11:20Z</time>
      </trkpt>
      <trkpt lat="42.99463" lon="-1.27626">
        <ele>993.11</ele>
        <time>2021-08-05T14:11:29Z</time>
      </trkpt>
      <trkpt lat="42.99468" lon="-1.27634">
        <ele>993.39</ele>
        <time>2021-08-05T14:11:30Z</time>
      </trkpt>
      <trkpt lat="42.99479" lon="-1.27651">
        <ele>994.05</ele>
        <time>2021-08-05T14:11:32Z</time>
      </trkpt>
      <trkpt lat="42.99563" lon="-1.27724">
        <ele>997.18</ele>
        <time>2021-08-05T14:11:43Z</time>
      </trkpt>
      <trkpt lat="42.99567" lon="-1.27733">
        <ele>997.74</ele>
        <time>2021-08-05T14:11:45Z</time>
      </trkpt>
      <trkpt lat="42.99539" lon="-1.27753">
        <ele>998.74</ele>
        <time>2021-08-05T14:11:49Z</time>
      </trkpt>
      <trkpt lat="42.99495" lon="-1.27775">
        <ele>1000.56</ele>
        <time>2021-08-05T14:11:55Z</time>
      </trkpt>
      <trkpt lat="42.99485" lon="-1.2783">
        <ele>1004.01</ele>
        <time>2021-08-05T14:12:02Z</time>
      </trkpt>
      <trkpt lat="42.99528" lon="-1.27855">
        <ele>1006.72</ele>
        <time>2021-08-05T14:12:07Z</time>
      </trkpt>
      <trkpt lat="42.99574" lon="-1.27876">
        <ele>1009.26</ele>
        <time>2021-08-05T14:12:12Z</time>
      </trkpt>
      <trkpt lat="42.99605" lon="-1.27958">
        <ele>1013.02</ele>
        <time>2021-08-05T14:12:19Z</time>
      </trkpt>
      <trkpt lat="42.99598" lon="-1.27997">
        <ele>1014.22</ele>
        <time>2021-08-05T14:12:22Z</time>
      </trkpt>
      <trkpt lat="42.99589" lon="-1.2804">
        <ele>1016</ele>
        <time>2021-08-05T14:12:26Z</time>
      </trkpt>
      <trkpt lat="42.99608" lon="-1.28078">
        <ele>1017.59</ele>
        <time>2021-08-05T14:12:32Z</time>
      </trkpt>
      <trkpt lat="42.99635" lon="-1.28071">
        <ele>1017.95</ele>
        <time>2021-08-05T14:12:35Z</time>
      </trkpt>
      <trkpt lat="42.99774" lon="-1.28021">
        <ele>1019.49</ele>
        <time>2021-08-05T14:12:46Z</time>
      </trkpt>
      <trkpt lat="42.99811" lon="-1.27997">
        <ele>1020.65</ele>
        <time>2021-08-05T14:12:49Z</time>
      </trkpt>
      <trkpt lat="42.99891" lon="-1.27874">
        <ele>1023.69</ele>
        <time>2021-08-05T14:12:58Z</time>
      </trkpt>
      <trkpt lat="42.99951" lon="-1.27766">
        <ele>1026.76</ele>
        <time>2021-08-05T14:13:06Z</time>
      </trkpt>
      <trkpt lat="43.00048" lon="-1.27667">
        <ele>1029.36</ele>
        <time>2021-08-05T14:13:17Z</time>
      </trkpt>
      <trkpt lat="43.00088" lon="-1.27647">
        <ele>1031.5</ele>
        <time>2021-08-05T14:13:23Z</time>
      </trkpt>
      <trkpt lat="43.00091" lon="-1.27644">
        <ele>1031.9</ele>
        <time>2021-08-05T14:13:24Z</time>
      </trkpt>
      <trkpt lat="43.00093" lon="-1.2764">
        <ele>1032.28</ele>
        <time>2021-08-05T14:13:25Z</time>
      </trkpt>
      <trkpt lat="43.00094" lon="-1.27635">
        <ele>1032.65</ele>
        <time>2021-08-05T14:13:26Z</time>
      </trkpt>
      <trkpt lat="43.00095" lon="-1.27628">
        <ele>1033.01</ele>
        <time>2021-08-05T14:13:27Z</time>
      </trkpt>
      <trkpt lat="43.00096" lon="-1.27621">
        <ele>1033.32</ele>
        <time>2021-08-05T14:13:28Z</time>
      </trkpt>
      <trkpt lat="43.00119" lon="-1.27529">
        <ele>1033.98</ele>
        <time>2021-08-05T14:13:38Z</time>
      </trkpt>
      <trkpt lat="43.00169" lon="-1.27483">
        <ele>1030.61</ele>
        <time>2021-08-05T14:13:45Z</time>
      </trkpt>
      <trkpt lat="43.00203" lon="-1.27472">
        <ele>1027.94</ele>
        <time>2021-08-05T14:13:49Z</time>
      </trkpt>
      <trkpt lat="43.0024" lon="-1.27479">
        <ele>1024.22</ele>
        <time>2021-08-05T14:13:55Z</time>
      </trkpt>
      <trkpt lat="43.00252" lon="-1.27449">
        <ele>1020.83</ele>
        <time>2021-08-05T14:14:00Z</time>
      </trkpt>
      <trkpt lat="43.00244" lon="-1.27348">
        <ele>1017.22</ele>
        <time>2021-08-05T14:14:07Z</time>
      </trkpt>
      <trkpt lat="43.0025" lon="-1.27232">
        <ele>1013.47</ele>
        <time>2021-08-05T14:14:14Z</time>
      </trkpt>
      <trkpt lat="43.00255" lon="-1.27161">
        <ele>1010.02</ele>
        <time>2021-08-05T14:14:18Z</time>
      </trkpt>
      <trkpt lat="43.00261" lon="-1.27109">
        <ele>1007.58</ele>
        <time>2021-08-05T14:14:21Z</time>
      </trkpt>
      <trkpt lat="43.00284" lon="-1.2703">
        <ele>1003.06</ele>
        <time>2021-08-05T14:14:26Z</time>
      </trkpt>
      <trkpt lat="43.00291" lon="-1.27007">
        <ele>1001.32</ele>
        <time>2021-08-05T14:14:28Z</time>
      </trkpt>
      <trkpt lat="43.00316" lon="-1.26977">
        <ele>997.59</ele>
        <time>2021-08-05T14:14:33Z</time>
      </trkpt>
      <trkpt lat="43.00334" lon="-1.26931">
        <ele>993.99</ele>
        <time>2021-08-05T14:14:40Z</time>
      </trkpt>
      <trkpt lat="43.00346" lon="-1.26797">
        <ele>990.52</ele>
        <time>2021-08-05T14:14:50Z</time>
      </trkpt>
      <trkpt lat="43.0036" lon="-1.2673">
        <ele>987.52</ele>
        <time>2021-08-05T14:14:55Z</time>
      </trkpt>
      <trkpt lat="43.00374" lon="-1.2668">
        <ele>985.27</ele>
        <time>2021-08-05T14:14:59Z</time>
      </trkpt>
      <trkpt lat="43.00409" lon="-1.26631">
        <ele>981.11</ele>
        <time>2021-08-05T14:15:05Z</time>
      </trkpt>
      <trkpt lat="43.00434" lon="-1.26613">
        <ele>978.58</ele>
        <time>2021-08-05T14:15:08Z</time>
      </trkpt>
      <trkpt lat="43.00452" lon="-1.26593">
        <ele>974.6</ele>
        <time>2021-08-05T14:15:11Z</time>
      </trkpt>
      <trkpt lat="43.00456" lon="-1.26586">
        <ele>974.6</ele>
        <time>2021-08-05T14:15:12Z</time>
      </trkpt>
      <trkpt lat="43.00459" lon="-1.2656">
        <ele>970.58</ele>
        <time>2021-08-05T14:15:15Z</time>
      </trkpt>
      <trkpt lat="43.00453" lon="-1.2654">
        <ele>968.94</ele>
        <time>2021-08-05T14:15:17Z</time>
      </trkpt>
      <trkpt lat="43.00443" lon="-1.26509">
        <ele>966.74</ele>
        <time>2021-08-05T14:15:20Z</time>
      </trkpt>
      <trkpt lat="43.00445" lon="-1.26466">
        <ele>963.62</ele>
        <time>2021-08-05T14:15:24Z</time>
      </trkpt>
      <trkpt lat="43.00456" lon="-1.26409">
        <ele>959.82</ele>
        <time>2021-08-05T14:15:29Z</time>
      </trkpt>
      <trkpt lat="43.00449" lon="-1.26351">
        <ele>954.96</ele>
        <time>2021-08-05T14:15:34Z</time>
      </trkpt>
      <trkpt lat="43.00449" lon="-1.26301">
        <ele>949.6</ele>
        <time>2021-08-05T14:15:39Z</time>
      </trkpt>
      <trkpt lat="43.00463" lon="-1.2627">
        <ele>946.48</ele>
        <time>2021-08-05T14:15:42Z</time>
      </trkpt>
      <trkpt lat="43.00474" lon="-1.26237">
        <ele>943.33</ele>
        <time>2021-08-05T14:15:45Z</time>
      </trkpt>
      <trkpt lat="43.00476" lon="-1.26225">
        <ele>942.33</ele>
        <time>2021-08-05T14:15:46Z</time>
      </trkpt>
      <trkpt lat="43.00484" lon="-1.26181">
        <ele>938.23</ele>
        <time>2021-08-05T14:15:50Z</time>
      </trkpt>
      <trkpt lat="43.00487" lon="-1.26154">
        <ele>934.9</ele>
        <time>2021-08-05T14:15:53Z</time>
      </trkpt>
      <trkpt lat="43.00489" lon="-1.26128">
        <ele>930.99</ele>
        <time>2021-08-05T14:15:57Z</time>
      </trkpt>
      <trkpt lat="43.00492" lon="-1.26109">
        <ele>927.61</ele>
        <time>2021-08-05T14:16:01Z</time>
      </trkpt>
      <trkpt lat="43.005" lon="-1.2609">
        <ele>924.4</ele>
        <time>2021-08-05T14:16:06Z</time>
      </trkpt>
      <trkpt lat="43.00503" lon="-1.26079">
        <ele>923.51</ele>
        <time>2021-08-05T14:16:08Z</time>
      </trkpt>
      <trkpt lat="43.00504" lon="-1.26072">
        <ele>923.06</ele>
        <time>2021-08-05T14:16:09Z</time>
      </trkpt>
      <trkpt lat="43.00511" lon="-1.2603">
        <ele>919.84</ele>
        <time>2021-08-05T14:16:17Z</time>
      </trkpt>
      <trkpt lat="43.00524" lon="-1.26011">
        <ele>917.09</ele>
        <time>2021-08-05T14:16:26Z</time>
      </trkpt>
      <trkpt lat="43.00538" lon="-1.25979">
        <ele>915.69</ele>
        <time>2021-08-05T14:16:33Z</time>
      </trkpt>
      <trkpt lat="43.00548" lon="-1.25954">
        <ele>915.33</ele>
        <time>2021-08-05T14:16:37Z</time>
      </trkpt>
      <trkpt lat="43.0057" lon="-1.25925">
        <ele>914.93</ele>
        <time>2021-08-05T14:16:42Z</time>
      </trkpt>
      <trkpt lat="43.00649" lon="-1.25875">
        <ele>913.47</ele>
        <time>2021-08-05T14:16:52Z</time>
      </trkpt>
      <trkpt lat="43.00759" lon="-1.25876">
        <ele>911.74</ele>
        <time>2021-08-05T14:17:03Z</time>
      </trkpt>
      <trkpt lat="43.00838" lon="-1.25842">
        <ele>911.64</ele>
        <time>2021-08-05T14:17:13Z</time>
      </trkpt>
      <trkpt lat="43.00854" lon="-1.25836">
        <ele>911.61</ele>
        <time>2021-08-05T14:17:15Z</time>
      </trkpt>
      <trkpt lat="43.00894" lon="-1.25772">
        <ele>911.16</ele>
        <time>2021-08-05T14:17:22Z</time>
      </trkpt>
      <trkpt lat="43.00897" lon="-1.2576">
        <ele>911.11</ele>
        <time>2021-08-05T14:17:23Z</time>
      </trkpt>
      <trkpt lat="43.00932" lon="-1.25708">
        <ele>910.84</ele>
        <time>2021-08-05T14:17:30Z</time>
      </trkpt>
      <trkpt lat="43.00946" lon="-1.25699">
        <ele>910.68</ele>
        <time>2021-08-05T14:17:32Z</time>
      </trkpt>
      <trkpt lat="43.0098" lon="-1.25639">
        <ele>908.79</ele>
        <time>2021-08-05T14:17:42Z</time>
      </trkpt>
      <trkpt lat="43.01028" lon="-1.25545">
        <ele>905.9</ele>
        <time>2021-08-05T14:17:52Z</time>
      </trkpt>
      <trkpt lat="43.01034" lon="-1.25531">
        <ele>904.93</ele>
        <time>2021-08-05T14:17:54Z</time>
      </trkpt>
      <trkpt lat="43.01037" lon="-1.25493">
        <ele>903.3</ele>
        <time>2021-08-05T14:17:58Z</time>
      </trkpt>
      <trkpt lat="43.0103" lon="-1.2545">
        <ele>901.9</ele>
        <time>2021-08-05T14:18:02Z</time>
      </trkpt>
      <trkpt lat="43.01027" lon="-1.25429">
        <ele>901.12</ele>
        <time>2021-08-05T14:18:04Z</time>
      </trkpt>
      <trkpt lat="43.01045" lon="-1.2537">
        <ele>899.59</ele>
        <time>2021-08-05T14:18:09Z</time>
      </trkpt>
      <trkpt lat="43.01069" lon="-1.25284">
        <ele>897.84</ele>
        <time>2021-08-05T14:18:15Z</time>
      </trkpt>
      <trkpt lat="43.0105" lon="-1.25225">
        <ele>896.53</ele>
        <time>2021-08-05T14:18:20Z</time>
      </trkpt>
      <trkpt lat="43.01043" lon="-1.25207">
        <ele>896.29</ele>
        <time>2021-08-05T14:18:22Z</time>
      </trkpt>
      <trkpt lat="43.01057" lon="-1.25146">
        <ele>896.14</ele>
        <time>2021-08-05T14:18:30Z</time>
      </trkpt>
      <trkpt lat="43.01073" lon="-1.25135">
        <ele>895.66</ele>
        <time>2021-08-05T14:18:32Z</time>
      </trkpt>
      <trkpt lat="43.01101" lon="-1.25099">
        <ele>890.48</ele>
        <time>2021-08-05T14:18:37Z</time>
      </trkpt>
      <trkpt lat="43.01101" lon="-1.25065">
        <ele>887.46</ele>
        <time>2021-08-05T14:18:41Z</time>
      </trkpt>
      <trkpt lat="43.01106" lon="-1.25046">
        <ele>886.36</ele>
        <time>2021-08-05T14:18:43Z</time>
      </trkpt>
      <trkpt lat="43.01168" lon="-1.24943">
        <ele>883.54</ele>
        <time>2021-08-05T14:18:55Z</time>
      </trkpt>
      <trkpt lat="43.01175" lon="-1.24937">
        <ele>883.07</ele>
        <time>2021-08-05T14:18:56Z</time>
      </trkpt>
      <trkpt lat="43.01189" lon="-1.24896">
        <ele>880.37</ele>
        <time>2021-08-05T14:19:02Z</time>
      </trkpt>
      <trkpt lat="43.01194" lon="-1.2488">
        <ele>879.49</ele>
        <time>2021-08-05T14:19:07Z</time>
      </trkpt>
      <trkpt lat="43.01197" lon="-1.24788">
        <ele>880.07</ele>
        <time>2021-08-05T14:19:15Z</time>
      </trkpt>
      <trkpt lat="43.01199" lon="-1.24686">
        <ele>879.26</ele>
        <time>2021-08-05T14:19:23Z</time>
      </trkpt>
      <trkpt lat="43.01206" lon="-1.2465">
        <ele>877.62</ele>
        <time>2021-08-05T14:19:27Z</time>
      </trkpt>
      <trkpt lat="43.01204" lon="-1.24631">
        <ele>876.14</ele>
        <time>2021-08-05T14:19:29Z</time>
      </trkpt>
      <trkpt lat="43.01164" lon="-1.24588">
        <ele>873.13</ele>
        <time>2021-08-05T14:19:35Z</time>
      </trkpt>
      <trkpt lat="43.01151" lon="-1.24568">
        <ele>872.78</ele>
        <time>2021-08-05T14:19:37Z</time>
      </trkpt>
      <trkpt lat="43.01128" lon="-1.245">
        <ele>872.73</ele>
        <time>2021-08-05T14:19:43Z</time>
      </trkpt>
      <trkpt lat="43.01096" lon="-1.24454">
        <ele>872.56</ele>
        <time>2021-08-05T14:19:48Z</time>
      </trkpt>
      <trkpt lat="43.01084" lon="-1.24442">
        <ele>872.33</ele>
        <time>2021-08-05T14:19:50Z</time>
      </trkpt>
      <trkpt lat="43.01067" lon="-1.24385">
        <ele>870.91</ele>
        <time>2021-08-05T14:19:56Z</time>
      </trkpt>
      <trkpt lat="43.01063" lon="-1.243">
        <ele>867.54</ele>
        <time>2021-08-05T14:20:04Z</time>
      </trkpt>
      <trkpt lat="43.01066" lon="-1.24232">
        <ele>864.19</ele>
        <time>2021-08-05T14:20:10Z</time>
      </trkpt>
      <trkpt lat="43.01067" lon="-1.24222">
        <ele>863.5</ele>
        <time>2021-08-05T14:20:11Z</time>
      </trkpt>
      <trkpt lat="43.01075" lon="-1.24184">
        <ele>861.33</ele>
        <time>2021-08-05T14:20:15Z</time>
      </trkpt>
      <trkpt lat="43.01038" lon="-1.24123">
        <ele>860.34</ele>
        <time>2021-08-05T14:20:22Z</time>
      </trkpt>
      <trkpt lat="43.01006" lon="-1.24088">
        <ele>859.67</ele>
        <time>2021-08-05T14:20:27Z</time>
      </trkpt>
      <trkpt lat="43.00983" lon="-1.24039">
        <ele>858.58</ele>
        <time>2021-08-05T14:20:32Z</time>
      </trkpt>
      <trkpt lat="43.00997" lon="-1.23978">
        <ele>855.81</ele>
        <time>2021-08-05T14:20:39Z</time>
      </trkpt>
      <trkpt lat="43.01029" lon="-1.23959">
        <ele>854.91</ele>
        <time>2021-08-05T14:20:44Z</time>
      </trkpt>
      <trkpt lat="43.01063" lon="-1.23957">
        <ele>854.92</ele>
        <time>2021-08-05T14:20:48Z</time>
      </trkpt>
      <trkpt lat="43.01098" lon="-1.23928">
        <ele>855.96</ele>
        <time>2021-08-05T14:20:53Z</time>
      </trkpt>
      <trkpt lat="43.01107" lon="-1.2391">
        <ele>856.65</ele>
        <time>2021-08-05T14:20:55Z</time>
      </trkpt>
      <trkpt lat="43.01116" lon="-1.23867">
        <ele>858.08</ele>
        <time>2021-08-05T14:20:59Z</time>
      </trkpt>
      <trkpt lat="43.01121" lon="-1.23798">
        <ele>861.15</ele>
        <time>2021-08-05T14:21:05Z</time>
      </trkpt>
      <trkpt lat="43.01126" lon="-1.23755">
        <ele>863.74</ele>
        <time>2021-08-05T14:21:11Z</time>
      </trkpt>
      <trkpt lat="43.01107" lon="-1.23657">
        <ele>866.42</ele>
        <time>2021-08-05T14:21:20Z</time>
      </trkpt>
      <trkpt lat="43.01115" lon="-1.23528">
        <ele>867.87</ele>
        <time>2021-08-05T14:21:29Z</time>
      </trkpt>
      <trkpt lat="43.01117" lon="-1.2341">
        <ele>864.84</ele>
        <time>2021-08-05T14:21:37Z</time>
      </trkpt>
      <trkpt lat="43.01121" lon="-1.23308">
        <ele>861.43</ele>
        <time>2021-08-05T14:21:45Z</time>
      </trkpt>
      <trkpt lat="43.01122" lon="-1.23229">
        <ele>857.68</ele>
        <time>2021-08-05T14:21:51Z</time>
      </trkpt>
      <trkpt lat="43.01118" lon="-1.2318">
        <ele>854.18</ele>
        <time>2021-08-05T14:21:55Z</time>
      </trkpt>
      <trkpt lat="43.01113" lon="-1.23144">
        <ele>850.88</ele>
        <time>2021-08-05T14:21:58Z</time>
      </trkpt>
      <trkpt lat="43.01107" lon="-1.23107">
        <ele>847.64</ele>
        <time>2021-08-05T14:22:01Z</time>
      </trkpt>
      <trkpt lat="43.01102" lon="-1.23068">
        <ele>844.39</ele>
        <time>2021-08-05T14:22:04Z</time>
      </trkpt>
      <trkpt lat="43.01097" lon="-1.23035">
        <ele>841.13</ele>
        <time>2021-08-05T14:22:07Z</time>
      </trkpt>
      <trkpt lat="43.01093" lon="-1.23017">
        <ele>839.07</ele>
        <time>2021-08-05T14:22:09Z</time>
      </trkpt>
      <trkpt lat="43.01092" lon="-1.23002">
        <ele>837.03</ele>
        <time>2021-08-05T14:22:11Z</time>
      </trkpt>
      <trkpt lat="43.0107" lon="-1.2298">
        <ele>832.57</ele>
        <time>2021-08-05T14:22:16Z</time>
      </trkpt>
      <trkpt lat="43.01063" lon="-1.22977">
        <ele>831.88</ele>
        <time>2021-08-05T14:22:17Z</time>
      </trkpt>
      <trkpt lat="43.01037" lon="-1.2297">
        <ele>829.52</ele>
        <time>2021-08-05T14:22:22Z</time>
      </trkpt>
      <trkpt lat="43.01019" lon="-1.22952">
        <ele>828.15</ele>
        <time>2021-08-05T14:22:27Z</time>
      </trkpt>
      <trkpt lat="43.01014" lon="-1.22936">
        <ele>826.68</ele>
        <time>2021-08-05T14:22:34Z</time>
      </trkpt>
      <trkpt lat="43.00999" lon="-1.22904">
        <ele>826.74</ele>
        <time>2021-08-05T14:22:43Z</time>
      </trkpt>
      <trkpt lat="43.00995" lon="-1.229">
        <ele>827.32</ele>
        <time>2021-08-05T14:22:46Z</time>
      </trkpt>
      <trkpt lat="43.00972" lon="-1.22843">
        <ele>830.49</ele>
        <time>2021-08-05T14:22:57Z</time>
      </trkpt>
      <trkpt lat="43.00952" lon="-1.22786">
        <ele>832</ele>
        <time>2021-08-05T14:23:09Z</time>
      </trkpt>
      <trkpt lat="43.00951" lon="-1.2276">
        <ele>831.97</ele>
        <time>2021-08-05T14:23:22Z</time>
      </trkpt>
      <trkpt lat="43.0095" lon="-1.22761">
        <ele>832.51</ele>
        <time>2021-08-05T14:23:44Z</time>
      </trkpt>
      <trkpt lat="43.00951" lon="-1.22764">
        <ele>832.53</ele>
        <time>2021-08-05T14:23:46Z</time>
      </trkpt>
      <trkpt lat="43.00962" lon="-1.22813">
        <ele>833.01</ele>
        <time>2021-08-05T14:23:58Z</time>
      </trkpt>
      <trkpt lat="43.00987" lon="-1.22879">
        <ele>833.3</ele>
        <time>2021-08-05T14:24:07Z</time>
      </trkpt>
      <trkpt lat="43.01004" lon="-1.22901">
        <ele>833.17</ele>
        <time>2021-08-05T14:24:11Z</time>
      </trkpt>
      <trkpt lat="43.0109" lon="-1.22934">
        <ele>833.88</ele>
        <time>2021-08-05T14:24:20Z</time>
      </trkpt>
      <trkpt lat="43.01135" lon="-1.22911">
        <ele>834.35</ele>
        <time>2021-08-05T14:24:24Z</time>
      </trkpt>
      <trkpt lat="43.01181" lon="-1.22836">
        <ele>835.51</ele>
        <time>2021-08-05T14:24:30Z</time>
      </trkpt>
      <trkpt lat="43.01247" lon="-1.22811">
        <ele>837.06</ele>
        <time>2021-08-05T14:24:36Z</time>
      </trkpt>
      <trkpt lat="43.01261" lon="-1.22812">
        <ele>837.2</ele>
        <time>2021-08-05T14:24:37Z</time>
      </trkpt>
      <trkpt lat="43.0129" lon="-1.22821">
        <ele>837.4</ele>
        <time>2021-08-05T14:24:39Z</time>
      </trkpt>
      <trkpt lat="43.0141" lon="-1.22905">
        <ele>838.92</ele>
        <time>2021-08-05T14:24:48Z</time>
      </trkpt>
      <trkpt lat="43.01501" lon="-1.22924">
        <ele>841.28</ele>
        <time>2021-08-05T14:24:54Z</time>
      </trkpt>
      <trkpt lat="43.01561" lon="-1.22888">
        <ele>842.55</ele>
        <time>2021-08-05T14:24:59Z</time>
      </trkpt>
      <trkpt lat="43.01588" lon="-1.22872">
        <ele>843.04</ele>
        <time>2021-08-05T14:25:01Z</time>
      </trkpt>
      <trkpt lat="43.01667" lon="-1.22874">
        <ele>844.56</ele>
        <time>2021-08-05T14:25:07Z</time>
      </trkpt>
      <trkpt lat="43.01755" lon="-1.22909">
        <ele>845.09</ele>
        <time>2021-08-05T14:25:14Z</time>
      </trkpt>
      <trkpt lat="43.01816" lon="-1.22918">
        <ele>846.29</ele>
        <time>2021-08-05T14:25:19Z</time>
      </trkpt>
      <trkpt lat="43.0187" lon="-1.22982">
        <ele>848.32</ele>
        <time>2021-08-05T14:25:25Z</time>
      </trkpt>
      <trkpt lat="43.01876" lon="-1.22999">
        <ele>848.58</ele>
        <time>2021-08-05T14:25:26Z</time>
      </trkpt>
      <trkpt lat="43.01891" lon="-1.23046">
        <ele>849.49</ele>
        <time>2021-08-05T14:25:29Z</time>
      </trkpt>
      <trkpt lat="43.01936" lon="-1.23086">
        <ele>850.59</ele>
        <time>2021-08-05T14:25:35Z</time>
      </trkpt>
      <trkpt lat="43.01972" lon="-1.2309">
        <ele>852.45</ele>
        <time>2021-08-05T14:25:39Z</time>
      </trkpt>
      <trkpt lat="43.0203" lon="-1.23066">
        <ele>856.83</ele>
        <time>2021-08-05T14:25:45Z</time>
      </trkpt>
      <trkpt lat="43.02082" lon="-1.23036">
        <ele>860.36</ele>
        <time>2021-08-05T14:25:49Z</time>
      </trkpt>
      <trkpt lat="43.02096" lon="-1.23029">
        <ele>861.17</ele>
        <time>2021-08-05T14:25:50Z</time>
      </trkpt>
      <trkpt lat="43.02172" lon="-1.23013">
        <ele>865.94</ele>
        <time>2021-08-05T14:25:55Z</time>
      </trkpt>
      <trkpt lat="43.02216" lon="-1.23014">
        <ele>869.3</ele>
        <time>2021-08-05T14:25:58Z</time>
      </trkpt>
      <trkpt lat="43.02257" lon="-1.23018">
        <ele>872.63</ele>
        <time>2021-08-05T14:26:01Z</time>
      </trkpt>
      <trkpt lat="43.02271" lon="-1.23022">
        <ele>873.69</ele>
        <time>2021-08-05T14:26:02Z</time>
      </trkpt>
      <trkpt lat="43.0232" lon="-1.23054">
        <ele>877</ele>
        <time>2021-08-05T14:26:06Z</time>
      </trkpt>
      <trkpt lat="43.02397" lon="-1.23062">
        <ele>881.45</ele>
        <time>2021-08-05T14:26:12Z</time>
      </trkpt>
      <trkpt lat="43.02438" lon="-1.23015">
        <ele>884.64</ele>
        <time>2021-08-05T14:26:16Z</time>
      </trkpt>
      <trkpt lat="43.02445" lon="-1.22999">
        <ele>885.54</ele>
        <time>2021-08-05T14:26:17Z</time>
      </trkpt>
      <trkpt lat="43.02488" lon="-1.22919">
        <ele>889.26</ele>
        <time>2021-08-05T14:26:22Z</time>
      </trkpt>
      <trkpt lat="43.02532" lon="-1.22887">
        <ele>890.66</ele>
        <time>2021-08-05T14:26:26Z</time>
      </trkpt>
      <trkpt lat="43.02586" lon="-1.2288">
        <ele>892.02</ele>
        <time>2021-08-05T14:26:30Z</time>
      </trkpt>
      <trkpt lat="43.02647" lon="-1.22936">
        <ele>895.54</ele>
        <time>2021-08-05T14:26:37Z</time>
      </trkpt>
      <trkpt lat="43.02684" lon="-1.2296">
        <ele>898.4</ele>
        <time>2021-08-05T14:26:42Z</time>
      </trkpt>
      <trkpt lat="43.02698" lon="-1.22946">
        <ele>899.89</ele>
        <time>2021-08-05T14:26:44Z</time>
      </trkpt>
      <trkpt lat="43.02737" lon="-1.22904">
        <ele>905.38</ele>
        <time>2021-08-05T14:26:49Z</time>
      </trkpt>
      <trkpt lat="43.02746" lon="-1.22896">
        <ele>906.37</ele>
        <time>2021-08-05T14:26:50Z</time>
      </trkpt>
      <trkpt lat="43.0277" lon="-1.2286">
        <ele>909.58</ele>
        <time>2021-08-05T14:26:53Z</time>
      </trkpt>
      <trkpt lat="43.02812" lon="-1.22815">
        <ele>914.34</ele>
        <time>2021-08-05T14:26:57Z</time>
      </trkpt>
      <trkpt lat="43.02824" lon="-1.22807">
        <ele>915.72</ele>
        <time>2021-08-05T14:26:58Z</time>
      </trkpt>
      <trkpt lat="43.02847" lon="-1.22791">
        <ele>918.76</ele>
        <time>2021-08-05T14:27:00Z</time>
      </trkpt>
      <trkpt lat="43.02884" lon="-1.22785">
        <ele>923.35</ele>
        <time>2021-08-05T14:27:03Z</time>
      </trkpt>
      <trkpt lat="43.02925" lon="-1.22778">
        <ele>927.82</ele>
        <time>2021-08-05T14:27:06Z</time>
      </trkpt>
      <trkpt lat="43.02951" lon="-1.22765">
        <ele>930.96</ele>
        <time>2021-08-05T14:27:08Z</time>
      </trkpt>
      <trkpt lat="43.02978" lon="-1.22767">
        <ele>934.03</ele>
        <time>2021-08-05T14:27:10Z</time>
      </trkpt>
      <trkpt lat="43.03006" lon="-1.22774">
        <ele>937.11</ele>
        <time>2021-08-05T14:27:12Z</time>
      </trkpt>
      <trkpt lat="43.0304" lon="-1.22768">
        <ele>942.81</ele>
        <time>2021-08-05T14:27:16Z</time>
      </trkpt>
      <trkpt lat="43.03058" lon="-1.22763">
        <ele>946.92</ele>
        <time>2021-08-05T14:27:19Z</time>
      </trkpt>
      <trkpt lat="43.03086" lon="-1.22754">
        <ele>950.28</ele>
        <time>2021-08-05T14:27:22Z</time>
      </trkpt>
      <trkpt lat="43.03117" lon="-1.22743">
        <ele>953.68</ele>
        <time>2021-08-05T14:27:25Z</time>
      </trkpt>
      <trkpt lat="43.03127" lon="-1.2274">
        <ele>954.86</ele>
        <time>2021-08-05T14:27:26Z</time>
      </trkpt>
      <trkpt lat="43.03171" lon="-1.22738">
        <ele>959.71</ele>
        <time>2021-08-05T14:27:30Z</time>
      </trkpt>
      <trkpt lat="43.03202" lon="-1.22733">
        <ele>963.44</ele>
        <time>2021-08-05T14:27:33Z</time>
      </trkpt>
      <trkpt lat="43.0321" lon="-1.22731">
        <ele>964.65</ele>
        <time>2021-08-05T14:27:34Z</time>
      </trkpt>
      <trkpt lat="43.03234" lon="-1.2271">
        <ele>968.97</ele>
        <time>2021-08-05T14:27:38Z</time>
      </trkpt>
      <trkpt lat="43.03238" lon="-1.22702">
        <ele>969.71</ele>
        <time>2021-08-05T14:27:39Z</time>
      </trkpt>
      <trkpt lat="43.03267" lon="-1.22644">
        <ele>974.05</ele>
        <time>2021-08-05T14:27:45Z</time>
      </trkpt>
      <trkpt lat="43.03291" lon="-1.22612">
        <ele>977.69</ele>
        <time>2021-08-05T14:27:49Z</time>
      </trkpt>
      <trkpt lat="43.03307" lon="-1.22584">
        <ele>981.75</ele>
        <time>2021-08-05T14:27:53Z</time>
      </trkpt>
      <trkpt lat="43.03315" lon="-1.22571">
        <ele>983.78</ele>
        <time>2021-08-05T14:27:55Z</time>
      </trkpt>
      <trkpt lat="43.03341" lon="-1.22537">
        <ele>987.71</ele>
        <time>2021-08-05T14:28:00Z</time>
      </trkpt>
      <trkpt lat="43.0337" lon="-1.22498">
        <ele>991.04</ele>
        <time>2021-08-05T14:28:04Z</time>
      </trkpt>
      <trkpt lat="43.03393" lon="-1.22464">
        <ele>994.04</ele>
        <time>2021-08-05T14:28:07Z</time>
      </trkpt>
      <trkpt lat="43.03435" lon="-1.22429">
        <ele>998.56</ele>
        <time>2021-08-05T14:28:11Z</time>
      </trkpt>
      <trkpt lat="43.03474" lon="-1.22402">
        <ele>1002.08</ele>
        <time>2021-08-05T14:28:14Z</time>
      </trkpt>
      <trkpt lat="43.03516" lon="-1.22378">
        <ele>1005.78</ele>
        <time>2021-08-05T14:28:17Z</time>
      </trkpt>
      <trkpt lat="43.03564" lon="-1.22371">
        <ele>1010.93</ele>
        <time>2021-08-05T14:28:21Z</time>
      </trkpt>
      <trkpt lat="43.03579" lon="-1.22392">
        <ele>1013.68</ele>
        <time>2021-08-05T14:28:23Z</time>
      </trkpt>
      <trkpt lat="43.03588" lon="-1.22419">
        <ele>1016.21</ele>
        <time>2021-08-05T14:28:25Z</time>
      </trkpt>
      <trkpt lat="43.03605" lon="-1.22432">
        <ele>1020.52</ele>
        <time>2021-08-05T14:28:28Z</time>
      </trkpt>
      <trkpt lat="43.03615" lon="-1.22402">
        <ele>1023.39</ele>
        <time>2021-08-05T14:28:31Z</time>
      </trkpt>
      <trkpt lat="43.03646" lon="-1.22324">
        <ele>1029.21</ele>
        <time>2021-08-05T14:28:37Z</time>
      </trkpt>
      <trkpt lat="43.03687" lon="-1.22331">
        <ele>1033.15</ele>
        <time>2021-08-05T14:28:41Z</time>
      </trkpt>
      <trkpt lat="43.03744" lon="-1.22361">
        <ele>1038.64</ele>
        <time>2021-08-05T14:28:46Z</time>
      </trkpt>
      <trkpt lat="43.03774" lon="-1.22371">
        <ele>1042.16</ele>
        <time>2021-08-05T14:28:49Z</time>
      </trkpt>
      <trkpt lat="43.03783" lon="-1.22373">
        <ele>1043.36</ele>
        <time>2021-08-05T14:28:50Z</time>
      </trkpt>
      <trkpt lat="43.03808" lon="-1.22374">
        <ele>1048.21</ele>
        <time>2021-08-05T14:28:54Z</time>
      </trkpt>
      <trkpt lat="43.03821" lon="-1.22361">
        <ele>1051.87</ele>
        <time>2021-08-05T14:28:58Z</time>
      </trkpt>
      <trkpt lat="43.03827" lon="-1.22339">
        <ele>1053.5</ele>
        <time>2021-08-05T14:29:01Z</time>
      </trkpt>
      <trkpt lat="43.03856" lon="-1.22215">
        <ele>1054.18</ele>
        <time>2021-08-05T14:29:11Z</time>
      </trkpt>
      <trkpt lat="43.03881" lon="-1.22164">
        <ele>1052.74</ele>
        <time>2021-08-05T14:29:15Z</time>
      </trkpt>
      <trkpt lat="43.03865" lon="-1.22116">
        <ele>1050.5</ele>
        <time>2021-08-05T14:29:20Z</time>
      </trkpt>
      <trkpt lat="43.03786" lon="-1.22055">
        <ele>1047.02</ele>
        <time>2021-08-05T14:29:27Z</time>
      </trkpt>
      <trkpt lat="43.03726" lon="-1.22014">
        <ele>1043.41</ele>
        <time>2021-08-05T14:29:32Z</time>
      </trkpt>
      <trkpt lat="43.03677" lon="-1.21976">
        <ele>1040.01</ele>
        <time>2021-08-05T14:29:36Z</time>
      </trkpt>
      <trkpt lat="43.0363" lon="-1.21936">
        <ele>1036.41</ele>
        <time>2021-08-05T14:29:40Z</time>
      </trkpt>
      <trkpt lat="43.03605" lon="-1.21919">
        <ele>1033.71</ele>
        <time>2021-08-05T14:29:43Z</time>
      </trkpt>
      <trkpt lat="43.03612" lon="-1.219">
        <ele>1029.14</ele>
        <time>2021-08-05T14:29:48Z</time>
      </trkpt>
      <trkpt lat="43.03621" lon="-1.21902">
        <ele>1028.5</ele>
        <time>2021-08-05T14:29:49Z</time>
      </trkpt>
      <trkpt lat="43.03693" lon="-1.21915">
        <ele>1024.67</ele>
        <time>2021-08-05T14:29:54Z</time>
      </trkpt>
      <trkpt lat="43.03748" lon="-1.21922">
        <ele>1021.18</ele>
        <time>2021-08-05T14:29:58Z</time>
      </trkpt>
      <trkpt lat="43.03806" lon="-1.21932">
        <ele>1017.64</ele>
        <time>2021-08-05T14:30:02Z</time>
      </trkpt>
      <trkpt lat="43.03867" lon="-1.21933">
        <ele>1012.74</ele>
        <time>2021-08-05T14:30:06Z</time>
      </trkpt>
      <trkpt lat="43.03914" lon="-1.21926">
        <ele>1009.31</ele>
        <time>2021-08-05T14:30:09Z</time>
      </trkpt>
      <trkpt lat="43.03944" lon="-1.21917">
        <ele>1007.02</ele>
        <time>2021-08-05T14:30:11Z</time>
      </trkpt>
      <trkpt lat="43.04" lon="-1.21917">
        <ele>1002.47</ele>
        <time>2021-08-05T14:30:15Z</time>
      </trkpt>
      <trkpt lat="43.04015" lon="-1.21917">
        <ele>1001.31</ele>
        <time>2021-08-05T14:30:16Z</time>
      </trkpt>
      <trkpt lat="43.04063" lon="-1.21894">
        <ele>997.03</ele>
        <time>2021-08-05T14:30:20Z</time>
      </trkpt>
      <trkpt lat="43.04074" lon="-1.21883">
        <ele>996</ele>
        <time>2021-08-05T14:30:21Z</time>
      </trkpt>
      <trkpt lat="43.0412" lon="-1.21839">
        <ele>992.43</ele>
        <time>2021-08-05T14:30:25Z</time>
      </trkpt>
      <trkpt lat="43.0414" lon="-1.21827">
        <ele>991.16</ele>
        <time>2021-08-05T14:30:27Z</time>
      </trkpt>
      <trkpt lat="43.04159" lon="-1.21823">
        <ele>990.49</ele>
        <time>2021-08-05T14:30:29Z</time>
      </trkpt>
      <trkpt lat="43.04182" lon="-1.21822">
        <ele>990.35</ele>
        <time>2021-08-05T14:30:32Z</time>
      </trkpt>
      <trkpt lat="43.04206" lon="-1.21772">
        <ele>992.21</ele>
        <time>2021-08-05T14:30:39Z</time>
      </trkpt>
      <trkpt lat="43.04207" lon="-1.21763">
        <ele>992.71</ele>
        <time>2021-08-05T14:30:40Z</time>
      </trkpt>
      <trkpt lat="43.04225" lon="-1.21713">
        <ele>996.8</ele>
        <time>2021-08-05T14:30:46Z</time>
      </trkpt>
      <trkpt lat="43.04249" lon="-1.21667">
        <ele>999.94</ele>
        <time>2021-08-05T14:30:52Z</time>
      </trkpt>
      <trkpt lat="43.04288" lon="-1.21627">
        <ele>1001.02</ele>
        <time>2021-08-05T14:30:57Z</time>
      </trkpt>
      <trkpt lat="43.04412" lon="-1.21543">
        <ele>1000.24</ele>
        <time>2021-08-05T14:31:08Z</time>
      </trkpt>
      <trkpt lat="43.0455" lon="-1.21455">
        <ele>997.21</ele>
        <time>2021-08-05T14:31:19Z</time>
      </trkpt>
      <trkpt lat="43.04633" lon="-1.2141">
        <ele>995.66</ele>
        <time>2021-08-05T14:31:27Z</time>
      </trkpt>
      <trkpt lat="43.04756" lon="-1.21343">
        <ele>994.81</ele>
        <time>2021-08-05T14:31:39Z</time>
      </trkpt>
      <trkpt lat="43.04818" lon="-1.2131">
        <ele>994.97</ele>
        <time>2021-08-05T14:31:47Z</time>
      </trkpt>
      <trkpt lat="43.04844" lon="-1.21264">
        <ele>994.45</ele>
        <time>2021-08-05T14:31:53Z</time>
      </trkpt>
      <trkpt lat="43.04865" lon="-1.21243">
        <ele>994.23</ele>
        <time>2021-08-05T14:31:56Z</time>
      </trkpt>
      <trkpt lat="43.04938" lon="-1.21177">
        <ele>994.3</ele>
        <time>2021-08-05T14:32:07Z</time>
      </trkpt>
    </trkseg>
  </trk>
</gpx>